M I D A S
Marine Information and Data Acquisition System
Tripno 1722 of the Zeeleeuw from 2009-02-13 09:01:58 to 2009-02-13 12:51:45
Back to CruiseResearch ActivitiesStationsMapUnderway DataData graphs

EquipmentUnitsComment
TimeDGPSUTC
LatitudeDGPSDM.mWGS84
LongitudeDGPSDM.mWGS84
TemperatureSBE03/SBE38deg celciusITS90
ConductivitySBE21S/mITS90
SalinitySBE21 Practical Salinity Units
ChlorophylAChelsea fluorimeterg/lCalibrated in Aceton
Missing or incorrect values are displayed as -999
Sea surface data collected by the RV Zeeleeuw from 2009-02-13 09:01:47 to 2009-02-13 13:00:09
                                                                                    Next 1000 lines
Time Latitude Longitude Temperature Conductivity Salinity ChlorophylA
2009-02-13 09:01:57 51°13.663 2°55.958 -999 0.016687 0.090084 -1.209513
2009-02-13 09:02:02 51°13.663 2°55.956 -999 0.016687 0.090084 -1.209513
2009-02-13 09:02:07 51°13.664 2°55.954 -999 0.016687 0.090086 -1.244337
2009-02-13 09:02:12 51°13.665 2°55.951 -999 0.016687 0.090087 -1.244337
2009-02-13 09:02:17 51°13.666 2°55.948 -999 0.016687 0.090088 -1.244337
2009-02-13 09:02:22 51°13.667 2°55.945 -999 0.016687 0.09009 -1.209513
2009-02-13 09:02:27 51°13.668 2°55.941 -999 0.016687 0.09009 -1.209513
2009-02-13 09:02:32 51°13.67 2°55.937 -999 0.016687 0.09009 -1.209513
2009-02-13 09:02:37 51°13.671 2°55.933 -999 0.016687 0.090091 -1.209513
2009-02-13 09:02:42 51°13.672 2°55.928 -999 0.016687 0.090091 -1.244337
2009-02-13 09:02:47 51°13.674 2°55.924 -999 0.016687 0.090092 -1.209513
2009-02-13 09:02:52 51°13.675 2°55.919 -999 0.016687 0.090092 -1.244337
2009-02-13 09:02:57 51°13.677 2°55.914 -999 0.016687 0.090095 -1.244337
2009-02-13 09:03:02 51°13.679 2°55.908 -999 0.016687 0.090095 -1.244337
2009-02-13 09:03:07 51°13.68 2°55.903 -999 0.016687 0.090095 -1.244337
2009-02-13 09:03:12 51°13.683 2°55.897 -999 0.016687 0.090096 -1.244337
2009-02-13 09:03:17 51°13.685 2°55.891 -999 0.016687 0.090098 -1.209513
2009-02-13 09:03:22 51°13.687 2°55.885 -999 0.016687 0.090099 -1.244337
2009-02-13 09:03:27 51°13.689 2°55.879 -999 0.016378 0.088487 -1.244337
2009-02-13 09:03:32 51°13.691 2°55.872 -999 0.016378 0.088487 -1.244337
2009-02-13 09:03:37 51°13.694 2°55.866 -999 0.018128 0.097635 -1.139864
2009-02-13 09:03:42 51°13.695 2°55.859 -999 0.028109 0.151672 -0.93092
2009-02-13 09:03:47 51°13.698 2°55.851 -999 0.305908 1.800146 -0.861272
2009-02-13 09:03:52 51°13.699 2°55.843 -999 4.179698 31.33212 0.427218
2009-02-13 09:03:57 51°13.701 2°55.835 -999 4.179698 31.33212 0.427218
2009-02-13 09:04:02 51°13.702 2°55.826 -999 4.173518 33.971049 2.864902
2009-02-13 09:04:07 51°13.704 2°55.818 -999 3.91654 34.761284 4.815049
2009-02-13 09:04:12 51°13.705 2°55.809 -999 3.349496 31.503415 5.33741
2009-02-13 09:04:17 51°13.706 2°55.801 -999 2.705221 25.901577 5.824946
2009-02-13 09:04:22 51°13.706 2°55.793 -999 2.558793 24.951001 6.103539
2009-02-13 09:04:27 51°13.707 2°55.785 -999 2.558793 24.951001 6.103539
2009-02-13 09:04:32 51°13.707 2°55.778 -999 2.418919 23.934077 6.312483
2009-02-13 09:04:37 51°13.707 2°55.771 -999 2.344605 23.398781 6.486603
2009-02-13 09:04:42 51°13.707 2°55.764 -999 2.306057 23.158187 7.113436
2009-02-13 09:04:47 51°13.707 2°55.758 -999 2.274539 22.937775 7.775093
2009-02-13 09:04:52 51°13.706 2°55.752 -999 2.105713 21.168802 8.367102
2009-02-13 09:04:57 51°13.706 2°55.747 -999 2.245813 22.786476 8.645695
2009-02-13 09:05:02 51°13.706 2°55.743 -999 2.245813 22.786476 8.645695
2009-02-13 09:05:07 51°13.706 2°55.739 -999 2.203863 22.399985 8.819815
2009-02-13 09:05:11 51°13.706 2°55.737 -999 2.198077 22.381739 8.854639
2009-02-13 09:05:17 51°13.706 2°55.734 -999 2.191465 22.362152 8.784991
2009-02-13 09:05:21 51°13.706 2°55.733 -999 2.177931 22.251282 8.819815
2009-02-13 09:05:26 51°13.706 2°55.733 -999 2.16109 22.09727 8.750167
2009-02-13 09:05:31 51°13.707 2°55.733 -999 2.16109 22.09727 8.750167
2009-02-13 09:05:36 51°13.708 2°55.733 -999 2.14332 21.921503 8.784991
2009-02-13 09:05:41 51°13.709 2°55.734 -999 2.126275 21.754951 8.750167
2009-02-13 09:05:45 51°13.71 2°55.735 -999 2.10768 21.576034 8.715343
2009-02-13 09:05:50 51°13.712 2°55.736 -999 2.08702 21.363568 8.645695
2009-02-13 09:05:55 51°13.714 2°55.737 -999 2.08702 21.363568 8.645695
2009-02-13 09:06:00 51°13.716 2°55.737 -999 2.065844 21.140199 8.576047
2009-02-13 09:06:05 51°13.718 2°55.738 -999 2.04973 20.969616 8.541223
2009-02-13 09:06:10 51°13.721 2°55.739 -999 2.027523 20.732894 8.506398
2009-02-13 09:06:14 51°13.723 2°55.739 -999 2.005833 20.497105 8.471574
2009-02-13 09:06:19 51°13.726 2°55.738 -999 1.983008 20.245205 8.506398
2009-02-13 09:06:25 51°13.731 2°55.737 -999 1.964418 20.04189 8.43675
2009-02-13 09:06:29 51°13.734 2°55.736 -999 1.964418 20.04189 8.43675
2009-02-13 09:06:34 51°13.737 2°55.734 -999 1.952645 19.920464 8.471574
2009-02-13 09:06:39 51°13.741 2°55.731 -999 1.942318 19.813319 8.471574
2009-02-13 09:06:43 51°13.745 2°55.729 -999 1.935916 19.747438 8.43675
2009-02-13 09:06:49 51°13.75 2°55.724 -999 1.935606 19.747536 8.43675
2009-02-13 09:06:54 51°13.755 2°55.719 -999 1.932301 19.716683 8.401926
2009-02-13 09:06:58 51°13.758 2°55.715 -999 1.932301 19.716683 8.401926
2009-02-13 09:07:04 51°13.765 2°55.708 -999 1.925486 19.645588 8.227806
2009-02-13 09:07:08 51°13.769 2°55.703 -999 1.907208 19.44533 8.123334
2009-02-13 09:07:14 51°13.776 2°55.695 -999 1.883975 19.192524 8.08851
2009-02-13 09:07:18 51°13.781 2°55.689 -999 1.870138 19.042439 8.08851
2009-02-13 09:07:24 51°13.788 2°55.681 -999 1.857748 18.908454 8.123334
2009-02-13 09:07:29 51°13.795 2°55.673 -999 1.857748 18.908454 8.123334
2009-02-13 09:07:33 51°13.801 2°55.667 -999 1.843396 18.753916 8.123334
2009-02-13 09:07:38 51°13.809 2°55.66 -999 1.831626 18.622446 8.08851
2009-02-13 09:07:44 51°13.818 2°55.651 -999 1.805092 18.326198 8.123334
2009-02-13 09:07:49 51°13.827 2°55.643 -999 1.780934 18.057804 8.123334
2009-02-13 09:07:53 51°13.834 2°55.636 -999 1.780934 18.057804 8.123334
2009-02-13 09:07:58 51°13.843 2°55.628 -999 1.75781 17.803903 8.08851
2009-02-13 09:08:03 51°13.853 2°55.62 -999 1.734996 17.552178 8.018862
2009-02-13 09:08:09 51°13.864 2°55.611 -999 1.717964 17.363835 7.949214
2009-02-13 09:08:13 51°13.872 2°55.605 -999 1.701346 17.177165 7.879566
2009-02-13 09:08:18 51°13.883 2°55.598 -999 1.690095 17.048608 7.809917
2009-02-13 09:08:24 51°13.895 2°55.588 -999 1.68514 16.990728 7.844741
2009-02-13 09:08:29 51°13.905 2°55.581 -999 1.68514 16.990728 7.844741
2009-02-13 09:08:33 51°13.914 2°55.574 -999 1.68256 16.961942 7.740269
2009-02-13 09:08:37 51°13.922 2°55.568 -999 1.683798 16.972466 7.705445
2009-02-13 09:08:44 51°13.937 2°55.556 -999 1.682766 16.958112 7.705445
2009-02-13 09:08:49 51°13.948 2°55.548 -999 1.685966 16.990622 7.635797
2009-02-13 09:08:53 51°13.957 2°55.542 -999 1.690611 17.039471 7.635797
2009-02-13 09:08:57 51°13.965 2°55.536 -999 1.690611 17.039471 7.635797
2009-02-13 09:09:03 51°13.978 2°55.526 -999 1.690198 17.036986 7.566149
2009-02-13 09:09:09 51°13.991 2°55.517 -999 1.6999 17.148463 7.600973
2009-02-13 09:09:13 51°14 2°55.511 -999 1.704958 17.205487 7.566149
2009-02-13 09:09:18 51°14.011 2°55.503 -999 1.719925 17.37082 7.600973
2009-02-13 09:09:23 51°14.022 2°55.495 -999 1.719925 17.37082 7.600973
2009-02-13 09:09:29 51°14.035 2°55.486 -999 1.732519 17.514951 7.566149
2009-02-13 09:09:33 51°14.044 2°55.48 -999 1.752648 17.743318 7.496501
2009-02-13 09:09:37 51°14.053 2°55.473 -999 1.780418 18.051568 7.392029
2009-02-13 09:09:43 51°14.066 2°55.463 -999 1.818617 18.477382 7.357205
2009-02-13 09:09:49 51°14.079 2°55.453 -999 1.859297 18.933564 7.252733
2009-02-13 09:09:53 51°14.088 2°55.446 -999 1.900187 19.389381 7.14826
2009-02-13 09:09:57 51°14.096 2°55.439 -999 1.900187 19.389381 7.14826
2009-02-13 09:10:03 51°14.11 2°55.428 -999 1.940357 19.842517 7.078612
2009-02-13 09:10:08 51°14.12 2°55.419 -999 1.978671 20.278663 6.97414
2009-02-13 09:10:13 51°14.131 2°55.41 -999 2.005524 20.585854 6.834844
2009-02-13 09:10:18 51°14.142 2°55.401 -999 2.036717 20.943035 6.660724
2009-02-13 09:10:23 51°14.153 2°55.392 -999 2.059131 21.20621 6.591076
2009-02-13 09:10:29 51°14.165 2°55.38 -999 2.059131 21.20621 6.591076
2009-02-13 09:10:33 51°14.174 2°55.371 -999 2.072766 21.365989 6.451779
2009-02-13 09:10:38 51°14.184 2°55.361 -999 2.086918 21.522754 6.382131
2009-02-13 09:10:44 51°14.196 2°55.347 -999 2.092909 21.589599 6.242835
2009-02-13 09:10:49 51°14.207 2°55.336 -999 2.103343 21.705228 6.208011
2009-02-13 09:10:53 51°14.214 2°55.326 -999 2.106442 21.746695 6.103539
2009-02-13 09:10:57 51°14.222 2°55.315 -999 2.106442 21.746695 6.103539
2009-02-13 09:11:04 51°14.235 2°55.297 -999 2.11574 21.856169 6.033891
2009-02-13 09:11:09 51°14.244 2°55.283 -999 2.125141 21.965592 5.964243
2009-02-13 09:11:13 51°14.252 2°55.272 -999 2.130409 22.029074 5.894594
2009-02-13 09:11:18 51°14.261 2°55.258 -999 2.131442 22.045385 5.824946
2009-02-13 09:11:23 51°14.27 2°55.244 -999 2.131442 22.045385 5.824946
2009-02-13 09:11:29 51°14.28 2°55.226 -999 2.130203 22.035349 5.68565
2009-02-13 09:11:33 51°14.287 2°55.214 -999 2.124934 21.979771 5.650826
2009-02-13 09:11:38 51°14.296 2°55.199 -999 2.122042 21.955005 5.68565
2009-02-13 09:11:43 51°14.305 2°55.184 -999 2.121009 21.951253 5.546354
2009-02-13 09:11:49 51°14.315 2°55.165 -999 2.122661 21.970605 5.51153
2009-02-13 09:11:53 51°14.322 2°55.153 -999 2.127104 22.024161 5.51153
2009-02-13 09:11:57 51°14.329 2°55.14 -999 2.127104 22.024161 5.51153
2009-02-13 09:12:03 51°14.339 2°55.121 -999 2.153965 22.335666 5.476706
2009-02-13 09:12:09 51°14.349 2°55.102 -999 2.171425 22.538404 5.546354
2009-02-13 09:12:13 51°14.356 2°55.089 -999 2.187336 22.72382 5.441882
2009-02-13 09:12:19 51°14.366 2°55.069 -999 2.197462 22.840937 5.51153
2009-02-13 09:12:23 51°14.373 2°55.056 -999 2.211824 23.004944 5.51153
2009-02-13 09:12:28 51°14.381 2°55.039 -999 2.211824 23.004944 5.51153
2009-02-13 09:12:33 51°14.389 2°55.022 -999 2.22567 23.165307 5.546354
2009-02-13 09:12:38 51°14.397 2°55.004 -999 2.253363 23.480855 5.581178
2009-02-13 09:12:43 51°14.405 2°54.988 -999 2.285708 23.847854 5.650826
2009-02-13 09:12:49 51°14.416 2°54.969 -999 2.319399 24.233015 5.790122
2009-02-13 09:12:53 51°14.424 2°54.957 -999 2.367459 24.783649 5.894594
2009-02-13 09:12:57 51°14.432 2°54.945 -999 2.367459 24.783649 5.894594
2009-02-13 09:13:04 51°14.447 2°54.925 -999 2.413145 25.308399 5.964243
2009-02-13 09:13:09 51°14.457 2°54.911 -999 2.455735 25.79716 5.964243
2009-02-13 09:13:13 51°14.466 2°54.9 -999 2.491505 26.198731 6.033891
2009-02-13 09:13:17 51°14.475 2°54.89 -999 2.511252 26.403695 6.103539
2009-02-13 09:13:23 51°14.489 2°54.875 -999 2.511252 26.403695 6.103539
2009-02-13 09:13:29 51°14.504 2°54.862 -999 2.544442 26.770213 6.208011
2009-02-13 09:13:33 51°14.514 2°54.855 -999 2.575255 27.121664 6.277659
2009-02-13 09:13:38 51°14.527 2°54.846 -999 2.606898 27.50052 6.416955
2009-02-13 09:13:43 51°14.54 2°54.839 -999 2.635957 27.851136 6.451779
2009-02-13 09:13:49 51°14.556 2°54.832 -999 2.656951 28.095186 6.451779
2009-02-13 09:13:53 51°14.567 2°54.828 -999 2.606691 27.508051 6.556251
2009-02-13 09:13:58 51°14.581 2°54.824 -999 2.606691 27.508051 6.556251
2009-02-13 09:14:03 51°14.595 2°54.819 -999 2.677015 28.324406 6.556251
2009-02-13 09:14:09 51°14.611 2°54.813 -999 2.691598 28.494232 6.521427
2009-02-13 09:14:13 51°14.622 2°54.808 -999 2.695632 28.535218 6.521427
2009-02-13 09:14:17 51°14.633 2°54.803 -999 2.698631 28.566725 6.556251
2009-02-13 09:14:23 51°14.649 2°54.796 -999 2.704837 28.645065 6.556251
2009-02-13 09:14:28 51°14.663 2°54.79 -999 2.704837 28.645065 6.556251
2009-02-13 09:14:33 51°14.677 2°54.783 -999 2.710009 28.708809 6.695548
2009-02-13 09:14:38 51°14.691 2°54.776 -999 2.716732 28.792416 6.730372
2009-02-13 09:14:43 51°14.705 2°54.77 -999 2.729041 28.94826 6.765196
2009-02-13 09:14:49 51°14.721 2°54.762 -999 2.736489 29.044874 6.730372
2009-02-13 09:14:53 51°14.733 2°54.756 -999 2.736489 29.044874 6.730372
2009-02-13 09:14:58 51°14.747 2°54.75 -999 2.745592 29.160065 6.730372
2009-02-13 09:15:03 51°14.76 2°54.743 -999 2.751798 29.241478 6.591076
2009-02-13 09:15:09 51°14.777 2°54.734 -999 2.755936 29.294322 6.556251
2009-02-13 09:15:13 51°14.788 2°54.729 -999 2.759763 29.342673 6.486603
2009-02-13 09:15:17 51°14.8 2°54.723 -999 2.763384 29.386848 6.451779
2009-02-13 09:15:24 51°14.82 2°54.713 -999 2.767832 29.438071 6.521427
2009-02-13 09:15:28 51°14.831 2°54.707 -999 2.767832 29.438071 6.521427
2009-02-13 09:15:33 51°14.845 2°54.7 -999 2.77497 29.519041 6.556251
2009-02-13 09:15:38 51°14.859 2°54.693 -999 2.789659 29.693045 6.660724
2009-02-13 09:15:44 51°14.876 2°54.684 -999 2.804349 29.866302 6.904492
2009-02-13 09:15:49 51°14.89 2°54.676 -999 2.821213 30.065222 6.97414
2009-02-13 09:15:53 51°14.902 2°54.671 -999 2.829593 30.158232 7.043788
2009-02-13 09:15:58 51°14.916 2°54.664 -999 2.829593 30.158232 7.043788
2009-02-13 09:16:04 51°14.933 2°54.655 -999 2.839628 30.275271 7.183084
2009-02-13 09:16:09 51°14.947 2°54.648 -999 2.849457 30.394513 7.322381
2009-02-13 09:16:13 51°14.958 2°54.642 -999 2.861252 30.536062 7.426853
2009-02-13 09:16:18 51°14.972 2°54.635 -999 2.870461 30.645406 7.426853
2009-02-13 09:16:23 51°14.986 2°54.628 -999 2.870461 30.645406 7.426853
2009-02-13 09:16:29 51°15.003 2°54.62 -999 2.876772 30.718822 7.426853
2009-02-13 09:16:33 51°15.014 2°54.614 -999 2.88267 30.786451 7.461677
2009-02-13 09:16:38 51°15.028 2°54.607 -999 2.890327 30.879483 7.461677
2009-02-13 09:16:43 51°15.042 2°54.6 -999 2.896949 30.962232 7.496501
2009-02-13 09:16:49 51°15.059 2°54.592 -999 2.901398 31.013778 7.461677
2009-02-13 09:16:53 51°15.07 2°54.587 -999 2.902847 31.026188 7.461677
2009-02-13 09:16:58 51°15.084 2°54.58 -999 2.902847 31.026188 7.461677
2009-02-13 09:17:03 51°15.098 2°54.573 -999 2.908021 31.086284 7.461677
2009-02-13 09:17:09 51°15.114 2°54.565 -999 2.911125 31.121034 7.496501
2009-02-13 09:17:13 51°15.126 2°54.56 -999 2.912677 31.137471 7.461677
2009-02-13 09:17:18 51°15.139 2°54.553 -999 2.916092 31.174005 7.426853
2009-02-13 09:17:23 51°15.153 2°54.546 -999 2.918368 31.198988 7.461677
2009-02-13 09:17:29 51°15.17 2°54.537 -999 2.918368 31.198988 7.461677
2009-02-13 09:17:33 51°15.182 2°54.532 -999 2.919403 31.211199 7.322381
2009-02-13 09:17:38 51°15.196 2°54.525 -999 2.918161 31.189962 7.322381
2009-02-13 09:17:44 51°15.213 2°54.516 -999 2.919196 31.203112 7.252733
2009-02-13 09:17:49 51°15.227 2°54.509 -999 2.922507 31.248779 7.183084
2009-02-13 09:17:53 51°15.238 2°54.504 -999 2.922714 31.252165 7.043788
2009-02-13 09:17:57 51°15.249 2°54.499 -999 2.922714 31.252165 7.043788
2009-02-13 09:18:04 51°15.27 2°54.49 -999 2.923542 31.262879 6.97414
2009-02-13 09:18:09 51°15.284 2°54.484 -999 2.923232 31.257329 6.904492
2009-02-13 09:18:13 51°15.296 2°54.479 -999 2.925094 31.28026 6.80002
2009-02-13 09:18:17 51°15.307 2°54.474 -999 2.926957 31.304137 6.660724
2009-02-13 09:18:23 51°15.324 2°54.468 -999 2.926957 31.304137 6.660724
2009-02-13 09:18:29 51°15.341 2°54.462 -999 2.927371 31.309969 6.556251
2009-02-13 09:18:34 51°15.356 2°54.458 -999 2.92706 31.300639 6.486603
2009-02-13 09:18:38 51°15.367 2°54.456 -999 2.927371 31.300529 6.486603
2009-02-13 09:18:44 51°15.385 2°54.453 -999 2.929441 31.328738 6.347307
2009-02-13 09:18:49 51°15.399 2°54.451 -999 2.930268 31.340402 6.416955
2009-02-13 09:18:54 51°15.414 2°54.45 -999 2.929958 31.336737 6.382131
2009-02-13 09:18:58 51°15.425 2°54.449 -999 2.929958 31.336737 6.382131
2009-02-13 09:19:03 51°15.44 2°54.449 -999 2.929234 31.32535 6.347307
2009-02-13 09:19:09 51°15.457 2°54.449 -999 2.926646 31.284433 6.382131
2009-02-13 09:19:13 51°15.469 2°54.449 -999 2.925198 31.260742 6.382131
2009-02-13 09:19:18 51°15.483 2°54.45 -999 2.921265 31.202133 6.416955
2009-02-13 09:19:23 51°15.497 2°54.45 -999 2.91992 31.180638 6.451779
2009-02-13 09:19:29 51°15.515 2°54.451 -999 2.91992 31.180638 6.451779
2009-02-13 09:19:33 51°15.526 2°54.451 -999 2.922507 31.215834 6.521427
2009-02-13 09:19:37 51°15.538 2°54.451 -999 2.923645 31.235842 6.521427
2009-02-13 09:19:44 51°15.558 2°54.452 -999 2.923956 31.246093 6.591076
2009-02-13 09:19:49 51°15.573 2°54.452 -999 2.924163 31.253243 6.660724
2009-02-13 09:19:53 51°15.584 2°54.452 -999 2.921679 31.222061 6.765196
2009-02-13 09:19:57 51°15.596 2°54.452 -999 2.921679 31.222061 6.765196
2009-02-13 09:20:04 51°15.616 2°54.452 -999 2.923335 31.253838 6.695548
2009-02-13 09:20:09 51°15.63 2°54.452 -999 2.925301 31.287421 6.730372
2009-02-13 09:20:13 51°15.642 2°54.452 -999 2.925095 31.296304 6.765196
2009-02-13 09:20:18 51°15.656 2°54.451 -999 2.925405 31.309418 6.765196
2009-02-13 09:20:23 51°15.671 2°54.45 -999 2.925405 31.309418 6.765196
2009-02-13 09:20:29 51°15.687 2°54.45 -999 2.926854 31.341672 6.80002
2009-02-13 09:20:33 51°15.698 2°54.45 -999 2.928406 31.378027 6.765196
2009-02-13 09:20:37 51°15.709 2°54.45 -999 2.927372 31.371474 6.765196
2009-02-13 09:20:43 51°15.724 2°54.45 -999 2.926026 31.361246 6.869668
2009-02-13 09:20:49 51°15.739 2°54.45 -999 2.927889 31.397523 6.834844
2009-02-13 09:20:53 51°15.749 2°54.45 -999 2.927889 31.407022 6.765196
2009-02-13 09:20:57 51°15.758 2°54.45 -999 2.927889 31.407022 6.765196
2009-02-13 09:21:03 51°15.772 2°54.45 -999 2.926544 31.393941 6.834844
2009-02-13 09:21:08 51°15.783 2°54.45 -999 2.923647 31.356784 6.80002
2009-02-13 09:21:13 51°15.793 2°54.45 -999 2.922612 31.347378 6.80002
2009-02-13 09:21:18 51°15.804 2°54.45 -999 2.922198 31.343425 6.765196
2009-02-13 09:21:23 51°15.814 2°54.449 -999 2.920542 31.322874 6.730372
2009-02-13 09:21:29 51°15.826 2°54.449 -999 2.920542 31.322874 6.730372
2009-02-13 09:21:33 51°15.834 2°54.449 -999 2.918162 31.291859 6.695548
2009-02-13 09:21:38 51°15.844 2°54.45 -999 2.917748 31.292639 6.660724
2009-02-13 09:21:43 51°15.853 2°54.451 -999 2.916714 31.284176 6.660724
2009-02-13 09:21:49 51°15.864 2°54.453 -999 2.916921 31.301783 6.521427
2009-02-13 09:21:53 51°15.871 2°54.454 -999 2.916921 31.301783 6.521427
2009-02-13 09:21:59 51°15.882 2°54.456 -999 2.915886 31.296159 6.486603
2009-02-13 09:22:04 51°15.891 2°54.459 -999 2.91392 31.278551 6.416955
2009-02-13 09:22:08 51°15.898 2°54.46 -999 2.913092 31.278218 6.277659
2009-02-13 09:22:13 51°15.907 2°54.462 -999 2.902538 31.154109 6.208011
2009-02-13 09:22:18 51°15.916 2°54.465 -999 2.907608 31.211339 6.208011
2009-02-13 09:22:24 51°15.926 2°54.468 -999 2.905125 31.179085 6.173187
2009-02-13 09:22:29 51°15.935 2°54.471 -999 2.905125 31.179085 6.173187
2009-02-13 09:22:33 51°15.942 2°54.473 -999 2.903573 31.163533 6.138363
2009-02-13 09:22:38 51°15.95 2°54.475 -999 2.904814 31.194309 6.033891
2009-02-13 09:22:43 51°15.959 2°54.478 -999 2.905953 31.220104 5.999067
2009-02-13 09:22:49 51°15.969 2°54.481 -999 2.90378 31.197178 5.894594
2009-02-13 09:22:53 51°15.976 2°54.483 -999 2.901917 31.174149 5.929418
2009-02-13 09:22:57 51°15.983 2°54.485 -999 2.901917 31.174149 5.929418
2009-02-13 09:23:03 51°15.993 2°54.488 -999 2.901503 31.173024 5.85977
2009-02-13 09:23:09 51°16.003 2°54.492 -999 2.900365 31.162364 5.790122
2009-02-13 09:23:13 51°16.01 2°54.493 -999 2.9014 31.184094 5.824946
2009-02-13 09:23:17 51°16.017 2°54.495 -999 2.902331 31.207452 5.85977
2009-02-13 09:23:23 51°16.027 2°54.498 -999 2.904194 31.24853 5.581178
2009-02-13 09:23:28 51°16.036 2°54.5 -999 2.904194 31.24853 5.581178
2009-02-13 09:23:33 51°16.044 2°54.503 -999 2.901401 31.229586 5.476706
2009-02-13 09:23:38 51°16.053 2°54.505 -999 2.895709 31.161045 5.476706
2009-02-13 09:23:43 51°16.061 2°54.508 -999 2.891777 31.112465 5.372234
2009-02-13 09:23:49 51°16.072 2°54.51 -999 2.888777 31.070234 5.163289
2009-02-13 09:23:53 51°16.079 2°54.513 -999 2.888777 31.070234 5.163289
2009-02-13 09:23:57 51°16.086 2°54.514 -999 2.886293 31.028509 5.058817
2009-02-13 09:24:04 51°16.098 2°54.518 -999 2.884534 30.999172 5.023993
2009-02-13 09:24:09 51°16.107 2°54.521 -999 2.884431 30.990418 4.919521
2009-02-13 09:24:13 51°16.114 2°54.522 -999 2.882775 30.939803 4.849873
2009-02-13 09:24:17 51°16.121 2°54.524 -999 2.880395 30.858297 4.815049
2009-02-13 09:24:24 51°16.134 2°54.528 -999 2.877807 30.747705 4.640929
2009-02-13 09:24:29 51°16.143 2°54.531 -999 2.877807 30.747705 4.640929
2009-02-13 09:24:33 51°16.15 2°54.533 -999 2.876875 30.643333 4.57128
2009-02-13 09:24:38 51°16.159 2°54.535 -999 2.875011 30.495791 4.57128
2009-02-13 09:24:44 51°16.17 2°54.539 -999 2.883082 30.597576 4.675753
2009-02-13 09:24:49 51°16.179 2°54.541 -999 2.892912 30.801289 4.640929
2009-02-13 09:24:53 51°16.186 2°54.543 -999 2.899329 30.970681 4.710577
2009-02-13 09:24:58 51°16.195 2°54.546 -999 2.899329 30.970681 4.710577
2009-02-13 09:25:03 51°16.204 2°54.549 -999 2.901399 31.06345 4.710577
2009-02-13 09:25:09 51°16.215 2°54.552 -999 2.901296 31.099823 4.640929
2009-02-13 09:25:13 51°16.222 2°54.554 -999 2.899951 31.111213 4.675753
2009-02-13 09:25:17 51°16.229 2°54.556 -999 2.89933 31.125546 4.640929
2009-02-13 09:25:23 51°16.24 2°54.559 -999 2.89933 31.125546 4.640929
2009-02-13 09:25:29 51°16.25 2°54.561 -999 2.89902 31.14547 4.640929
2009-02-13 09:25:33 51°16.256 2°54.563 -999 2.898296 31.153894 4.640929
2009-02-13 09:25:38 51°16.263 2°54.564 -999 2.898296 31.167138 4.57128
2009-02-13 09:25:43 51°16.27 2°54.564 -999 2.897882 31.17264 4.501632
2009-02-13 09:25:49 51°16.278 2°54.562 -999 2.898814 31.192223 4.536456
2009-02-13 09:25:53 51°16.283 2°54.56 -999 2.900262 31.214168 4.501632
2009-02-13 09:25:58 51°16.289 2°54.557 -999 2.900262 31.214168 4.501632
2009-02-13 09:26:03 51°16.294 2°54.552 -999 2.901194 31.232824 4.501632
2009-02-13 09:26:09 51°16.3 2°54.546 -999 2.902539 31.255457 4.57128
2009-02-13 09:26:13 51°16.303 2°54.541 -999 2.902642 31.26144 4.466808
2009-02-13 09:26:17 51°16.307 2°54.536 -999 2.900883 31.250036 4.39716
2009-02-13 09:26:24 51°16.312 2°54.525 -999 2.89809 31.228223 4.431984
2009-02-13 09:26:29 51°16.315 2°54.517 -999 2.89809 31.228223 4.431984
2009-02-13 09:26:33 51°16.317 2°54.511 -999 2.896434 31.214236 4.362336
2009-02-13 09:26:37 51°16.319 2°54.504 -999 2.89602 31.213115 4.39716
2009-02-13 09:26:44 51°16.321 2°54.49 -999 2.89571 31.210373 4.431984
2009-02-13 09:26:49 51°16.323 2°54.48 -999 2.89602 31.212164 4.431984
2009-02-13 09:26:53 51°16.323 2°54.471 -999 2.896331 31.215856 4.327512
2009-02-13 09:26:58 51°16.323 2°54.46 -999 2.896331 31.215856 4.327512
2009-02-13 09:27:04 51°16.323 2°54.446 -999 2.896641 31.223351 4.362336
2009-02-13 09:27:09 51°16.321 2°54.435 -999 2.896952 31.231798 4.362336
2009-02-13 09:27:13 51°16.32 2°54.427 -999 2.897055 31.235882 4.362336
2009-02-13 09:27:17 51°16.318 2°54.418 -999 2.896641 31.234762 4.292688
2009-02-13 09:27:23 51°16.315 2°54.406 -999 2.896641 31.234762 4.292688
2009-02-13 09:27:29 51°16.311 2°54.394 -999 2.896952 31.241311 4.257864
2009-02-13 09:27:33 51°16.308 2°54.387 -999 2.896952 31.241311 4.327512
2009-02-13 09:27:37 51°16.305 2°54.38 -999 2.897676 31.250883 4.362336
2009-02-13 09:27:43 51°16.3 2°54.369 -999 2.899435 31.269915 4.362336
2009-02-13 09:27:48 51°16.296 2°54.361 -999 2.901608 31.294826 4.362336
2009-02-13 09:27:53 51°16.292 2°54.354 -999 2.903885 31.321924 4.39716
2009-02-13 09:27:58 51°16.288 2°54.346 -999 2.903885 31.321924 4.39716
2009-02-13 09:28:03 51°16.284 2°54.34 -999 2.905644 31.342866 4.39716
2009-02-13 09:28:09 51°16.281 2°54.333 -999 2.908437 31.374219 4.39716
2009-02-13 09:28:13 51°16.279 2°54.328 -999 2.909679 31.38518 4.39716
2009-02-13 09:28:17 51°16.277 2°54.324 -999 2.911645 31.406676 4.39716
2009-02-13 09:28:23 51°16.275 2°54.32 -999 2.913611 31.428171 4.39716
2009-02-13 09:28:29 51°16.273 2°54.316 -999 2.913611 31.428171 4.39716
2009-02-13 09:28:33 51°16.273 2°54.314 -999 2.914335 31.436796 4.362336
2009-02-13 09:28:37 51°16.272 2°54.312 -999 2.91537 31.448159 4.39716
2009-02-13 09:28:44 51°16.27 2°54.308 -999 2.915474 31.451307 4.362336
2009-02-13 09:28:48 51°16.27 2°54.306 -999 2.916302 31.462123 4.39716
2009-02-13 09:28:53 51°16.269 2°54.304 -999 2.916405 31.464313 4.327512
2009-02-13 09:28:58 51°16.268 2°54.301 -999 2.916405 31.464313 4.327512
2009-02-13 09:29:04 51°16.267 2°54.298 -999 2.918371 31.488688 4.39716
2009-02-13 09:29:09 51°16.266 2°54.296 -999 2.919199 31.497589 4.675753
2009-02-13 09:29:13 51°16.266 2°54.294 -999 2.920648 31.512926 5.058817
2009-02-13 09:29:18 51°16.265 2°54.293 -999 2.924166 31.550032 5.023993
2009-02-13 09:29:23 51°16.264 2°54.29 -999 2.924166 31.550032 5.023993
2009-02-13 09:29:29 51°16.263 2°54.288 -999 2.92696 31.578507 4.989169
2009-02-13 09:29:33 51°16.263 2°54.286 -999 2.931409 31.625737 4.884697
2009-02-13 09:29:38 51°16.262 2°54.284 -999 2.934514 31.6579 4.815049
2009-02-13 09:29:43 51°16.262 2°54.282 -999 2.936273 31.674037 4.780225
2009-02-13 09:29:49 51°16.26 2°54.28 -999 2.936687 31.676075 4.815049
2009-02-13 09:29:53 51°16.26 2°54.278 -999 2.938136 31.691402 4.849873
2009-02-13 09:29:58 51°16.259 2°54.276 -999 2.938136 31.691402 4.849873
2009-02-13 09:30:03 51°16.259 2°54.274 -999 2.939584 31.707693 4.849873
2009-02-13 09:30:09 51°16.258 2°54.272 -999 2.940826 31.722484 4.815049
2009-02-13 09:30:13 51°16.257 2°54.27 -999 2.94124 31.726449 4.815049
2009-02-13 09:30:17 51°16.257 2°54.269 -999 2.941757 31.733578 4.815049
2009-02-13 09:30:23 51°16.256 2°54.266 -999 2.941757 31.733578 4.815049
2009-02-13 09:30:28 51°16.255 2°54.264 -999 2.941757 31.733578 4.815049
2009-02-13 09:30:33 51°16.254 2°54.262 -999 2.942792 31.744939 4.815049
2009-02-13 09:30:38 51°16.254 2°54.26 -999 2.943413 31.75137 4.849873
2009-02-13 09:30:43 51°16.253 2°54.258 -999 2.94362 31.753835 4.884697
2009-02-13 09:30:49 51°16.252 2°54.256 -999 2.944551 31.76493 4.849873
2009-02-13 09:30:53 51°16.252 2°54.254 -999 2.944551 31.76493 4.849873
2009-02-13 09:30:58 51°16.251 2°54.252 -999 2.944862 31.767662 4.884697
2009-02-13 09:31:04 51°16.25 2°54.249 -999 2.943827 31.757267 4.815049
2009-02-13 09:31:09 51°16.25 2°54.247 -999 2.942482 31.743172 4.710577
2009-02-13 09:31:13 51°16.249 2°54.246 -999 2.940205 31.718948 4.710577
2009-02-13 09:31:17 51°16.249 2°54.244 -999 2.939998 31.718413 4.745401
2009-02-13 09:31:24 51°16.248 2°54.241 -999 2.940102 31.719646 4.780225
2009-02-13 09:31:29 51°16.247 2°54.239 -999 2.940102 31.719646 4.780225
2009-02-13 09:31:33 51°16.247 2°54.237 -999 2.940205 31.721844 4.815049
2009-02-13 09:31:37 51°16.247 2°54.235 -999 2.940723 31.726077 4.780225
2009-02-13 09:31:43 51°16.246 2°54.233 -999 2.941447 31.733741 4.745401
2009-02-13 09:31:49 51°16.245 2°54.231 -999 2.94155 31.734009 4.710577
2009-02-13 09:31:53 51°16.245 2°54.229 -999 2.94155 31.734974 4.675753
2009-02-13 09:31:58 51°16.244 2°54.227 -999 2.94155 31.734974 4.675753
2009-02-13 09:32:03 51°16.244 2°54.225 -999 2.940309 31.722111 4.606104
2009-02-13 09:32:09 51°16.243 2°54.222 -999 2.939895 31.718145 4.536456
2009-02-13 09:32:13 51°16.242 2°54.221 -999 2.938239 31.701315 4.536456
2009-02-13 09:32:17 51°16.242 2°54.219 -999 2.93648 31.68325 4.536456
2009-02-13 09:32:23 51°16.241 2°54.216 -999 2.935652 31.67628 4.501632
2009-02-13 09:32:29 51°16.24 2°54.214 -999 2.935652 31.67628 4.501632
2009-02-13 09:32:33 51°16.24 2°54.213 -999 2.934617 31.665879 4.501632
2009-02-13 09:32:37 51°16.239 2°54.211 -999 2.933789 31.657943 4.536456
2009-02-13 09:32:43 51°16.239 2°54.208 -999 2.933996 31.659445 4.675753
2009-02-13 09:32:48 51°16.238 2°54.206 -999 2.935031 31.669846 4.780225
2009-02-13 09:32:53 51°16.238 2°54.204 -999 2.935031 31.669846 4.780225
2009-02-13 09:32:58 51°16.237 2°54.202 -999 2.937411 31.69531 4.780225
2009-02-13 09:33:03 51°16.237 2°54.2 -999 2.938963 31.711875 4.780225
2009-02-13 09:33:09 51°16.236 2°54.198 -999 2.938239 31.702279 4.675753
2009-02-13 09:33:13 51°16.235 2°54.196 -999 2.93679 31.687913 4.606104
2009-02-13 09:33:18 51°16.234 2°54.194 -999 2.935238 31.672312 4.536456
2009-02-13 09:33:24 51°16.234 2°54.192 -999 2.933479 31.654244 4.536456
2009-02-13 09:33:29 51°16.233 2°54.19 -999 2.933479 31.654244 4.536456
2009-02-13 09:33:33 51°16.232 2°54.188 -999 2.931927 31.638641 4.431984
2009-02-13 09:33:37 51°16.232 2°54.186 -999 2.929236 31.611399 4.362336
2009-02-13 09:33:44 51°16.231 2°54.183 -999 2.928822 31.609354 4.362336
2009-02-13 09:33:49 51°16.23 2°54.181 -999 2.926442 31.584844 4.362336
2009-02-13 09:33:53 51°16.23 2°54.179 -999 2.925201 31.571971 4.327512
2009-02-13 09:33:57 51°16.229 2°54.178 -999 2.925201 31.571971 4.327512
2009-02-13 09:34:03 51°16.228 2°54.175 -999 2.924269 31.563758 4.362336
2009-02-13 09:34:09 51°16.228 2°54.173 -999 2.923545 31.556088 4.327512
2009-02-13 09:34:13 51°16.227 2°54.171 -999 2.922717 31.548146 4.362336
2009-02-13 09:34:18 51°16.226 2°54.169 -999 2.922614 31.548835 4.362336
2009-02-13 09:34:23 51°16.225 2°54.167 -999 2.922821 31.551301 4.362336
2009-02-13 09:34:29 51°16.224 2°54.164 -999 2.922821 31.551301 4.362336
2009-02-13 09:34:33 51°16.224 2°54.163 -999 2.922821 31.551301 4.431984
2009-02-13 09:34:37 51°16.223 2°54.161 -999 2.922096 31.54363 4.39716
2009-02-13 09:34:43 51°16.222 2°54.159 -999 2.921476 31.537192 4.362336
2009-02-13 09:34:49 51°16.221 2°54.156 -999 2.921269 31.536647 4.431984
2009-02-13 09:34:53 51°16.221 2°54.154 -999 2.921062 31.534181 4.362336
2009-02-13 09:34:57 51°16.22 2°54.153 -999 2.921062 31.534181 4.362336
2009-02-13 09:35:04 51°16.219 2°54.15 -999 2.920544 31.529936 4.362336
2009-02-13 09:35:08 51°16.218 2°54.148 -999 2.920337 31.52747 4.292688
2009-02-13 09:35:13 51°16.218 2°54.146 -999 2.920441 31.529664 4.39716
2009-02-13 09:35:18 51°16.217 2°54.144 -999 2.920751 31.532403 4.362336
2009-02-13 09:35:23 51°16.216 2°54.141 -999 2.920855 31.534597 4.327512
2009-02-13 09:35:29 51°16.215 2°54.139 -999 2.920855 31.534597 4.327512
2009-02-13 09:35:33 51°16.215 2°54.137 -999 2.920855 31.534597 4.292688
2009-02-13 09:35:38 51°16.214 2°54.135 -999 2.920234 31.528158 4.257864
2009-02-13 09:35:44 51°16.213 2°54.132 -999 2.91951 31.521446 4.292688
2009-02-13 09:35:49 51°16.212 2°54.131 -999 2.918578 31.511306 4.22304
2009-02-13 09:35:53 51°16.211 2°54.129 -999 2.917544 31.501853 4.22304
2009-02-13 09:35:57 51°16.211 2°54.127 -999 2.917544 31.501853 4.22304
2009-02-13 09:36:04 51°16.21 2°54.124 -999 2.916716 31.493907 4.292688
2009-02-13 09:36:09 51°16.209 2°54.122 -999 2.916095 31.488426 4.292688
2009-02-13 09:36:13 51°16.209 2°54.12 -999 2.915991 31.488152 4.327512
2009-02-13 09:36:18 51°16.208 2°54.118 -999 2.915991 31.488152 4.257864
2009-02-13 09:36:23 51°16.207 2°54.116 -999 2.915991 31.488152 4.257864
2009-02-13 09:36:29 51°16.206 2°54.113 -999 2.916302 31.490893 4.292688
2009-02-13 09:36:33 51°16.205 2°54.111 -999 2.916612 31.494593 4.292688
2009-02-13 09:36:38 51°16.204 2°54.109 -999 2.916923 31.498293 4.362336
2009-02-13 09:36:43 51°16.204 2°54.107 -999 2.917337 31.502267 4.39716
2009-02-13 09:36:49 51°16.203 2°54.104 -999 2.917751 31.507201 4.327512
2009-02-13 09:36:53 51°16.202 2°54.102 -999 2.918061 31.510902 4.39716
2009-02-13 09:36:57 51°16.201 2°54.101 -999 2.918061 31.510902 4.39716
2009-02-13 09:37:03 51°16.2 2°54.098 -999 2.918371 31.514602 4.327512
2009-02-13 09:37:09 51°16.199 2°54.096 -999 2.918889 31.519809 4.292688
2009-02-13 09:37:14 51°16.198 2°54.095 -999 2.919199 31.522549 4.362336
2009-02-13 09:37:17 51°16.197 2°54.094 -999 2.919096 31.521315 4.362336
2009-02-13 09:37:24 51°16.195 2°54.093 -999 2.918992 31.521043 4.327512
2009-02-13 09:37:28 51°16.193 2°54.093 -999 2.918992 31.521043 4.327512
2009-02-13 09:37:33 51°16.191 2°54.093 -999 2.919096 31.521315 4.362336
2009-02-13 09:37:38 51°16.189 2°54.093 -999 2.919613 31.526522 4.39716
2009-02-13 09:37:44 51°16.186 2°54.094 -999 2.920441 31.535429 4.362336
2009-02-13 09:37:50 51°16.183 2°54.096 -999 2.921372 31.54557 4.466808
2009-02-13 09:37:55 51°16.18 2°54.097 -999 2.922614 31.558449 4.815049
2009-02-13 09:38:01 51°16.176 2°54.098 -999 2.922614 31.558449 4.815049
2009-02-13 09:38:07 51°16.172 2°54.1 -999 2.925097 31.583243 5.023993
2009-02-13 09:38:12 51°16.169 2°54.101 -999 2.927995 31.612968 5.128465
2009-02-13 09:38:17 51°16.166 2°54.102 -999 2.930478 31.637754 5.163289
2009-02-13 09:38:22 51°16.162 2°54.103 -999 2.932341 31.656101 5.128465
2009-02-13 09:38:28 51°16.159 2°54.103 -999 2.933479 31.66774 5.198113
2009-02-13 09:38:32 51°16.157 2°54.104 -999 2.933479 31.66774 5.198113
2009-02-13 09:38:37 51°16.155 2°54.103 -999 2.934307 31.676643 5.232937
2009-02-13 09:38:42 51°16.153 2°54.102 -999 2.935135 31.685546 5.232937
2009-02-13 09:38:47 51°16.151 2°54.101 -999 2.935756 31.691017 5.198113
2009-02-13 09:38:52 51°16.15 2°54.099 -999 2.936273 31.697184 5.128465
2009-02-13 09:38:57 51°16.149 2°54.096 -999 2.93648 31.698686 5.058817
2009-02-13 09:39:01 51°16.149 2°54.094 -999 2.93648 31.698686 5.058817
2009-02-13 09:39:06 51°16.15 2°54.092 -999 2.936584 31.699919 4.849873
2009-02-13 09:39:11 51°16.151 2°54.089 -999 2.936584 31.699919 4.849873
2009-02-13 09:39:16 51°16.152 2°54.086 -999 2.936377 31.698417 4.745401
2009-02-13 09:39:21 51°16.155 2°54.084 -999 2.935445 31.689246 4.675753
2009-02-13 09:39:26 51°16.157 2°54.083 -999 2.931927 31.651167 4.606104
2009-02-13 09:39:30 51°16.159 2°54.082 -999 2.931927 31.651167 4.606104
2009-02-13 09:39:35 51°16.162 2°54.082 -999 2.930375 31.635557 4.606104
2009-02-13 09:39:40 51°16.164 2°54.083 -999 2.928823 31.619946 4.57128
2009-02-13 09:39:45 51°16.167 2°54.084 -999 2.926236 31.591999 4.536456
2009-02-13 09:39:50 51°16.169 2°54.087 -999 2.926029 31.590495 4.710577
2009-02-13 09:39:55 51°16.171 2°54.09 -999 2.928409 31.615975 4.745401
2009-02-13 09:40:00 51°16.173 2°54.093 -999 2.928409 31.615975 4.745401
2009-02-13 09:40:05 51°16.175 2°54.098 -999 2.930582 31.637061 4.780225
2009-02-13 09:40:09 51°16.176 2°54.101 -999 2.932134 31.65267 4.815049
2009-02-13 09:40:14 51°16.177 2°54.106 -999 2.933376 31.665542 4.815049
2009-02-13 09:40:19 51°16.179 2°54.111 -999 2.934203 31.673481 4.849873
2009-02-13 09:40:24 51°16.18 2°54.116 -999 2.935652 31.688818 4.849873
2009-02-13 09:40:29 51°16.182 2°54.12 -999 2.935652 31.688818 4.849873
2009-02-13 09:40:33 51°16.184 2°54.124 -999 2.937204 31.704424 4.919521
2009-02-13 09:40:38 51°16.186 2°54.128 -999 2.938343 31.71606 4.815049
2009-02-13 09:40:44 51°16.189 2°54.133 -999 2.937825 31.709893 4.780225
2009-02-13 09:40:49 51°16.192 2°54.136 -999 2.936066 31.693752 4.710577
2009-02-13 09:40:53 51°16.195 2°54.139 -999 2.932755 31.659106 4.57128
2009-02-13 09:40:57 51°16.198 2°54.141 -999 2.932755 31.659106 4.57128
2009-02-13 09:41:03 51°16.203 2°54.144 -999 2.929133 31.622683 4.536456
2009-02-13 09:41:09 51°16.207 2°54.147 -999 2.924166 31.573104 4.362336
2009-02-13 09:41:13 51°16.21 2°54.15 -999 2.918578 31.516109 4.292688
2009-02-13 09:41:18 51°16.213 2°54.153 -999 2.913301 31.459921 4.257864
2009-02-13 09:41:23 51°16.215 2°54.157 -999 2.909059 31.417018 4.327512
2009-02-13 09:41:29 51°16.218 2°54.162 -999 2.909059 31.417018 4.327512
2009-02-13 09:41:33 51°16.22 2°54.166 -999 2.906265 31.38946 4.188216
2009-02-13 09:41:38 51°16.221 2°54.171 -999 2.904092 31.367384 4.188216
2009-02-13 09:41:43 51°16.222 2°54.176 -999 2.902436 31.348605 4.257864
2009-02-13 09:41:49 51°16.223 2°54.183 -999 2.902436 31.349561 4.292688
2009-02-13 09:41:54 51°16.224 2°54.188 -999 2.904299 31.369851 4.39716
2009-02-13 09:41:57 51°16.224 2°54.191 -999 2.904299 31.369851 4.39716
2009-02-13 09:42:04 51°16.226 2°54.199 -999 2.906472 31.392884 4.39716
2009-02-13 09:42:09 51°16.227 2°54.204 -999 2.908024 31.409473 4.39716
2009-02-13 09:42:13 51°16.228 2°54.207 -999 2.908955 31.419617 4.431984
2009-02-13 09:42:19 51°16.23 2°54.213 -999 2.909369 31.423593 4.431984
2009-02-13 09:42:24 51°16.231 2°54.217 -999 2.909886 31.429761 4.39716
2009-02-13 09:42:29 51°16.233 2°54.221 -999 2.909886 31.429761 4.39716
2009-02-13 09:42:33 51°16.234 2°54.224 -999 2.9103 31.434696 4.39716
2009-02-13 09:42:38 51°16.236 2°54.228 -999 2.910714 31.438672 4.466808
2009-02-13 09:42:44 51°16.238 2°54.232 -999 2.910714 31.43963 4.39716
2009-02-13 09:42:49 51°16.24 2°54.236 -999 2.909369 31.427427 4.327512
2009-02-13 09:42:53 51°16.241 2°54.239 -999 2.907403 31.405903 4.327512
2009-02-13 09:42:57 51°16.242 2°54.241 -999 2.907403 31.405903 4.327512
2009-02-13 09:43:03 51°16.244 2°54.245 -999 2.905127 31.382592 4.292688
2009-02-13 09:43:09 51°16.246 2°54.249 -999 2.903885 31.369702 4.327512
2009-02-13 09:43:13 51°16.247 2°54.252 -999 2.902436 31.355301 4.257864
2009-02-13 09:43:17 51°16.248 2°54.254 -999 2.901298 31.343643 4.188216
2009-02-13 09:43:23 51°16.249 2°54.258 -999 2.900677 31.337197 4.257864
2009-02-13 09:43:29 51°16.251 2°54.261 -999 2.900677 31.337197 4.257864
2009-02-13 09:43:33 51°16.251 2°54.263 -999 2.900988 31.340898 4.292688
2009-02-13 09:43:38 51°16.253 2°54.265 -999 2.901816 31.349811 4.292688
2009-02-13 09:43:43 51°16.254 2°54.268 -999 2.902747 31.359959 4.327512
2009-02-13 09:43:49 51°16.255 2°54.271 -999 2.904299 31.375594 4.362336
2009-02-13 09:43:53 51°16.255 2°54.273 -999 2.905541 31.389442 4.39716
2009-02-13 09:43:57 51°16.256 2°54.275 -999 2.905541 31.389442 4.39716
2009-02-13 09:44:03 51°16.257 2°54.279 -999 2.906782 31.402332 4.431984
2009-02-13 09:44:09 51°16.257 2°54.281 -999 2.908231 31.418648 4.431984
2009-02-13 09:44:13 51°16.258 2°54.283 -999 2.909473 31.431537 4.431984
2009-02-13 09:44:17 51°16.258 2°54.285 -999 2.90999 31.436747 4.501632
2009-02-13 09:44:24 51°16.258 2°54.288 -999 2.909886 31.434555 4.431984
2009-02-13 09:44:28 51°16.259 2°54.289 -999 2.909886 31.434555 4.431984
2009-02-13 09:44:33 51°16.259 2°54.291 -999 2.90968 31.433046 4.501632
2009-02-13 09:44:38 51°16.259 2°54.293 -999 2.909576 31.431812 4.501632
2009-02-13 09:44:44 51°16.259 2°54.295 -999 2.909473 31.431537 4.466808
2009-02-13 09:44:49 51°16.259 2°54.297 -999 2.909576 31.432771 4.466808
2009-02-13 09:44:53 51°16.26 2°54.298 -999 2.909473 31.432496 4.431984
2009-02-13 09:44:58 51°16.259 2°54.299 -999 2.909473 31.432496 4.431984
2009-02-13 09:45:04 51°16.26 2°54.301 -999 2.909162 31.429753 4.431984
2009-02-13 09:45:09 51°16.26 2°54.302 -999 2.908955 31.427285 4.39716
2009-02-13 09:45:13 51°16.259 2°54.303 -999 2.908645 31.424542 4.431984
2009-02-13 09:45:17 51°16.26 2°54.303 -999 2.908334 31.421799 4.39716
2009-02-13 09:45:24 51°16.259 2°54.305 -999 2.907817 31.416587 4.431984
2009-02-13 09:45:29 51°16.259 2°54.306 -999 2.907817 31.416587 4.431984
2009-02-13 09:45:33 51°16.259 2°54.306 -999 2.9073 31.411376 4.39716
2009-02-13 09:45:37 51°16.259 2°54.307 -999 2.906886 31.407399 4.362336
2009-02-13 09:45:43 51°16.258 2°54.308 -999 2.906679 31.404931 4.362336
2009-02-13 09:45:49 51°16.258 2°54.309 -999 2.906368 31.401229 4.362336
2009-02-13 09:45:53 51°16.258 2°54.309 -999 2.905955 31.397251 4.39716
2009-02-13 09:45:58 51°16.258 2°54.31 -999 2.905955 31.397251 4.39716
2009-02-13 09:46:03 51°16.257 2°54.31 -999 2.905644 31.393549 4.39716
2009-02-13 09:46:09 51°16.257 2°54.311 -999 2.905541 31.393273 4.39716
2009-02-13 09:46:13 51°16.257 2°54.311 -999 2.905334 31.390805 4.362336
2009-02-13 09:46:17 51°16.257 2°54.311 -999 2.905127 31.389295 4.292688
2009-02-13 09:46:23 51°16.256 2°54.311 -999 2.904713 31.385317 4.362336
2009-02-13 09:46:29 51°16.256 2°54.311 -999 2.904713 31.385317 4.362336
2009-02-13 09:46:34 51°16.256 2°54.311 -999 2.904195 31.37819 4.327512
2009-02-13 09:46:37 51°16.255 2°54.311 -999 2.903989 31.377637 4.362336
2009-02-13 09:46:44 51°16.255 2°54.311 -999 2.903989 31.376679 4.362336
2009-02-13 09:46:48 51°16.255 2°54.311 -999 2.903989 31.377637 4.362336
2009-02-13 09:46:53 51°16.254 2°54.311 -999 2.903989 31.377637 4.327512
2009-02-13 09:46:58 51°16.254 2°54.311 -999 2.903989 31.377637 4.327512
2009-02-13 09:47:04 51°16.253 2°54.31 -999 2.903782 31.376126 4.362336
2009-02-13 09:47:09 51°16.253 2°54.31 -999 2.903575 31.373658 4.327512
2009-02-13 09:47:13 51°16.253 2°54.309 -999 2.903471 31.371467 4.292688
2009-02-13 09:47:18 51°16.252 2°54.309 -999 2.903368 31.372148 4.327512
2009-02-13 09:47:24 51°16.252 2°54.308 -999 2.903368 31.372148 4.327512
2009-02-13 09:47:29 51°16.251 2°54.308 -999 2.903368 31.372148 4.327512
2009-02-13 09:47:33 51°16.251 2°54.308 -999 2.903264 31.370914 4.327512
2009-02-13 09:47:37 51°16.25 2°54.307 -999 2.902954 31.367212 4.327512
2009-02-13 09:47:44 51°16.25 2°54.306 -999 2.902747 31.364744 4.327512
2009-02-13 09:47:49 51°16.249 2°54.306 -999 2.902333 31.361722 4.327512
2009-02-13 09:47:53 51°16.249 2°54.305 -999 2.902126 31.359254 4.327512
2009-02-13 09:47:58 51°16.248 2°54.305 -999 2.902126 31.359254 4.327512
2009-02-13 09:48:03 51°16.248 2°54.304 -999 2.901505 31.352807 4.257864
2009-02-13 09:48:09 51°16.247 2°54.303 -999 2.900988 31.346637 4.257864
2009-02-13 09:48:13 51°16.247 2°54.302 -999 2.900574 31.342658 4.292688
2009-02-13 09:48:18 51°16.246 2°54.301 -999 2.900263 31.338956 4.292688
2009-02-13 09:48:23 51°16.245 2°54.3 -999 2.900057 31.336488 4.292688
2009-02-13 09:48:29 51°16.245 2°54.299 -999 2.900057 31.336488 4.292688
2009-02-13 09:48:33 51°16.244 2°54.298 -999 2.899953 31.336211 4.257864
2009-02-13 09:48:37 51°16.243 2°54.298 -999 2.899539 31.332231 4.257864
2009-02-13 09:48:44 51°16.243 2°54.296 -999 2.899125 31.327295 4.292688
2009-02-13 09:48:49 51°16.242 2°54.295 -999 2.898504 31.32276 4.257864
2009-02-13 09:48:53 51°16.241 2°54.294 -999 2.898504 31.32276 4.257864
2009-02-13 09:48:59 51°16.241 2°54.293 -999 2.897987 31.31659 4.257864
2009-02-13 09:49:04 51°16.24 2°54.292 -999 2.897677 31.313843 4.292688
2009-02-13 09:49:08 51°16.239 2°54.291 -999 2.89747 31.309464 4.257864
2009-02-13 09:49:13 51°16.239 2°54.29 -999 2.896952 31.307117 4.22304
2009-02-13 09:49:18 51°16.238 2°54.289 -999 2.896642 31.303415 4.257864
2009-02-13 09:49:24 51°16.237 2°54.288 -999 2.896332 31.300668 4.292688
2009-02-13 09:49:29 51°16.236 2°54.286 -999 2.896332 31.300668 4.292688
2009-02-13 09:49:33 51°16.236 2°54.285 -999 2.896125 31.2982 4.22304
2009-02-13 09:49:37 51°16.235 2°54.284 -999 2.895814 31.294498 4.257864
2009-02-13 09:49:44 51°16.234 2°54.283 -999 2.895711 31.293264 4.22304
2009-02-13 09:49:49 51°16.233 2°54.282 -999 2.8954 31.290517 4.22304
2009-02-13 09:49:53 51°16.232 2°54.281 -999 2.895193 31.288049 4.22304
2009-02-13 09:49:57 51°16.232 2°54.28 -999 2.895193 31.288049 4.22304
2009-02-13 09:50:03 51°16.231 2°54.278 -999 2.89478 31.284068 4.188216
2009-02-13 09:50:09 51°16.23 2°54.277 -999 2.894469 31.280366 4.188216
2009-02-13 09:50:13 51°16.229 2°54.276 -999 2.894262 31.277898 4.188216
2009-02-13 09:50:18 51°16.228 2°54.274 -999 2.894055 31.276385 4.22304
2009-02-13 09:50:23 51°16.228 2°54.273 -999 2.894055 31.276385 4.22304
2009-02-13 09:50:29 51°16.226 2°54.271 -999 2.894055 31.276385 4.22304
2009-02-13 09:50:33 51°16.226 2°54.27 -999 2.894262 31.278853 4.22304
2009-02-13 09:50:37 51°16.225 2°54.269 -999 2.894159 31.277619 4.22304
2009-02-13 09:50:43 51°16.224 2°54.267 -999 2.893952 31.275151 4.22304
2009-02-13 09:50:49 51°16.223 2°54.266 -999 2.893745 31.273638 4.153392
2009-02-13 09:50:54 51°16.222 2°54.264 -999 2.893434 31.269936 4.188216
2009-02-13 09:50:57 51°16.221 2°54.263 -999 2.893434 31.269936 4.188216
2009-02-13 09:51:04 51°16.221 2°54.261 -999 2.892917 31.264721 4.188216
2009-02-13 09:51:08 51°16.22 2°54.26 -999 2.892607 31.261973 4.188216
2009-02-13 09:51:13 51°16.219 2°54.258 -999 2.892503 31.259785 4.153392
2009-02-13 09:51:18 51°16.218 2°54.257 -999 2.891986 31.254569 4.188216
2009-02-13 09:51:23 51°16.217 2°54.256 -999 2.891675 31.250867 4.118568
2009-02-13 09:51:29 51°16.216 2°54.254 -999 2.891675 31.250867 4.118568
2009-02-13 09:51:33 51°16.215 2°54.252 -999 2.891468 31.248399 4.22304
2009-02-13 09:51:38 51°16.214 2°54.251 -999 2.891468 31.249353 4.153392
2009-02-13 09:51:44 51°16.214 2°54.249 -999 2.891468 31.249353 4.188216
2009-02-13 09:51:49 51°16.212 2°54.248 -999 2.891365 31.248119 4.153392
2009-02-13 09:51:53 51°16.212 2°54.246 -999 2.891365 31.248119 4.188216
2009-02-13 09:51:57 51°16.211 2°54.245 -999 2.891365 31.248119 4.188216
2009-02-13 09:52:04 51°16.21 2°54.243 -999 2.891675 31.250867 4.188216
2009-02-13 09:52:09 51°16.209 2°54.241 -999 2.892089 31.254849 4.188216
2009-02-13 09:52:13 51°16.208 2°54.24 -999 2.892089 31.254849 4.188216
2009-02-13 09:52:18 51°16.207 2°54.238 -999 2.891986 31.254569 4.153392
2009-02-13 09:52:24 51°16.206 2°54.237 -999 2.891675 31.251821 4.188216
2009-02-13 09:52:29 51°16.205 2°54.235 -999 2.891675 31.251821 4.188216
2009-02-13 09:52:34 51°16.204 2°54.233 -999 2.891365 31.248119 4.188216
2009-02-13 09:52:38 51°16.203 2°54.232 -999 2.891055 31.244417 4.118568
2009-02-13 09:52:44 51°16.202 2°54.23 -999 2.890434 31.238922 4.153392
2009-02-13 09:52:49 51°16.201 2°54.228 -999 2.885984 31.18396 4.153392
2009-02-13 09:52:53 51°16.2 2°54.227 -999 2.89002 31.232078 4.118568
2009-02-13 09:52:58 51°16.199 2°54.225 -999 2.89002 31.232078 4.118568
2009-02-13 09:53:04 51°16.198 2°54.223 -999 2.889709 31.231237 4.118568
2009-02-13 09:53:09 51°16.197 2°54.221 -999 2.889399 31.227535 4.04892
2009-02-13 09:53:13 51°16.196 2°54.22 -999 2.889089 31.225741 4.118568
2009-02-13 09:53:18 51°16.195 2°54.218 -999 2.889192 31.226021 4.118568
2009-02-13 09:53:23 51°16.194 2°54.216 -999 2.889192 31.226021 4.083744
2009-02-13 09:53:29 51°16.193 2°54.214 -999 2.889192 31.226021 4.083744
2009-02-13 09:53:33 51°16.192 2°54.213 -999 2.888985 31.223553 4.083744
2009-02-13 09:53:39 51°16.191 2°54.21 -999 2.888985 31.223553 4.083744
2009-02-13 09:53:44 51°16.19 2°54.209 -999 2.889192 31.226975 4.083744
2009-02-13 09:53:49 51°16.189 2°54.207 -999 2.889296 31.227255 4.118568
2009-02-13 09:53:53 51°16.188 2°54.205 -999 2.888985 31.224507 4.04892
2009-02-13 09:53:57 51°16.187 2°54.204 -999 2.888985 31.224507 4.04892
2009-02-13 09:54:04 51°16.186 2°54.201 -999 2.888468 31.218337 4.014096
2009-02-13 09:54:09 51°16.185 2°54.199 -999 2.88795 31.21312 4.04892
2009-02-13 09:54:13 51°16.184 2°54.198 -999 2.88764 31.209418 4.04892
2009-02-13 09:54:18 51°16.183 2°54.196 -999 2.887433 31.207903 4.04892
2009-02-13 09:54:24 51°16.182 2°54.194 -999 2.887744 31.210652 4.083744
2009-02-13 09:54:29 51°16.18 2°54.192 -999 2.887744 31.210652 4.083744
2009-02-13 09:54:33 51°16.18 2°54.19 -999 2.888364 31.218056 4.118568
2009-02-13 09:54:38 51°16.179 2°54.188 -999 2.889192 31.226975 4.118568
2009-02-13 09:54:43 51°16.178 2°54.187 -999 2.889296 31.228209 4.118568
2009-02-13 09:54:49 51°16.176 2°54.184 -999 2.889089 31.225741 4.083744
2009-02-13 09:54:53 51°16.176 2°54.183 -999 2.888985 31.223553 4.083744
2009-02-13 09:54:57 51°16.175 2°54.181 -999 2.888985 31.223553 4.083744
2009-02-13 09:55:03 51°16.173 2°54.179 -999 2.888675 31.220805 4.04892
2009-02-13 09:55:09 51°16.172 2°54.177 -999 2.888261 31.215869 4.118568
2009-02-13 09:55:14 51°16.171 2°54.174 -999 2.888261 31.215869 4.083744
2009-02-13 09:55:19 51°16.17 2°54.173 -999 2.888261 31.216822 4.083744
2009-02-13 09:55:24 51°16.169 2°54.171 -999 2.888468 31.218337 4.083744
2009-02-13 09:55:28 51°16.168 2°54.169 -999 2.888468 31.218337 4.083744
2009-02-13 09:55:33 51°16.167 2°54.167 -999 2.888882 31.223273 4.118568
2009-02-13 09:55:39 51°16.166 2°54.165 -999 2.889296 31.227255 4.118568
2009-02-13 09:55:43 51°16.165 2°54.163 -999 2.889606 31.230003 4.153392
2009-02-13 09:55:49 51°16.164 2°54.161 -999 2.889813 31.232471 4.118568
2009-02-13 09:55:53 51°16.163 2°54.159 -999 2.890123 31.23522 4.153392
2009-02-13 09:55:59 51°16.162 2°54.157 -999 2.890123 31.23522 4.153392
2009-02-13 09:56:04 51°16.161 2°54.155 -999 2.890434 31.238922 4.153392
2009-02-13 09:56:09 51°16.159 2°54.153 -999 2.890434 31.239876 4.118568
2009-02-13 09:56:13 51°16.159 2°54.151 -999 2.890227 31.236454 4.118568
2009-02-13 09:56:19 51°16.157 2°54.149 -999 2.89002 31.234939 4.153392
2009-02-13 09:56:24 51°16.156 2°54.148 -999 2.889709 31.231237 4.118568
2009-02-13 09:56:29 51°16.155 2°54.147 -999 2.889709 31.231237 4.118568
2009-02-13 09:56:33 51°16.154 2°54.146 -999 2.889399 31.227535 4.188216
2009-02-13 09:56:38 51°16.152 2°54.146 -999 2.889192 31.226021 4.153392
2009-02-13 09:56:44 51°16.151 2°54.147 -999 2.889296 31.227255 4.153392
2009-02-13 09:56:49 51°16.15 2°54.147 -999 2.889089 31.224787 4.118568
2009-02-13 09:56:53 51°16.15 2°54.148 -999 2.888882 31.223273 4.118568
2009-02-13 09:56:58 51°16.149 2°54.149 -999 2.888882 31.223273 4.118568
2009-02-13 09:57:03 51°16.149 2°54.15 -999 2.888157 31.216541 4.118568
2009-02-13 09:57:09 51°16.148 2°54.152 -999 2.887433 31.208856 4.083744
2009-02-13 09:57:13 51°16.148 2°54.153 -999 2.886088 31.19472 3.979271
2009-02-13 09:57:17 51°16.148 2°54.154 -999 2.884743 31.17963 4.014096
2009-02-13 09:57:23 51°16.149 2°54.156 -999 2.883915 31.171663 3.979271
2009-02-13 09:57:29 51°16.149 2°54.158 -999 2.883915 31.171663 3.979271
2009-02-13 09:57:34 51°16.15 2°54.16 -999 2.884019 31.172897 4.153392
2009-02-13 09:57:39 51°16.151 2°54.162 -999 2.884846 31.181817 4.257864
2009-02-13 09:57:44 51°16.152 2°54.164 -999 2.885674 31.191689 4.22304
2009-02-13 09:57:48 51°16.153 2°54.166 -999 2.886605 31.201843 4.257864
2009-02-13 09:57:53 51°16.155 2°54.169 -999 2.887019 31.205826 4.22304
2009-02-13 09:57:59 51°16.156 2°54.172 -999 2.887019 31.205826 4.22304
2009-02-13 09:58:04 51°16.158 2°54.175 -999 2.885778 31.193876 4.22304
2009-02-13 09:58:09 51°16.16 2°54.179 -999 2.884639 31.180301 4.22304
2009-02-13 09:58:13 51°16.161 2°54.182 -999 2.883708 31.171099 4.22304
2009-02-13 09:58:19 51°16.165 2°54.187 -999 2.882156 31.155445 4.118568
2009-02-13 09:58:24 51°16.168 2°54.191 -999 2.880501 31.137603 4.04892
2009-02-13 09:58:29 51°16.171 2°54.195 -999 2.880501 31.137603 4.04892
2009-02-13 09:58:33 51°16.174 2°54.199 -999 2.878535 31.116058 4.083744
2009-02-13 09:58:37 51°16.177 2°54.202 -999 2.87719 31.102868 4.04892
2009-02-13 09:58:44 51°16.182 2°54.208 -999 2.875741 31.088442 4.04892
2009-02-13 09:58:49 51°16.187 2°54.212 -999 2.874086 31.070597 3.909623
2009-02-13 09:58:53 51°16.19 2°54.215 -999 2.872741 31.056454 3.909623
2009-02-13 09:58:58 51°16.195 2°54.219 -999 2.872741 31.056454 3.909623
2009-02-13 09:59:04 51°16.2 2°54.225 -999 2.870775 31.035855 3.944447
2009-02-13 09:59:09 51°16.204 2°54.23 -999 2.870982 31.039272 3.944447
2009-02-13 09:59:13 51°16.207 2°54.234 -999 2.870878 31.038038 4.04892
2009-02-13 09:59:17 51°16.209 2°54.239 -999 2.870257 31.029685 4.014096
2009-02-13 09:59:23 51°16.213 2°54.245 -999 2.870878 31.037089 4.083744
2009-02-13 09:59:29 51°16.217 2°54.251 -999 2.870878 31.037089 4.083744
2009-02-13 09:59:33 51°16.219 2°54.255 -999 2.871809 31.046297 4.188216
2009-02-13 09:59:39 51°16.223 2°54.26 -999 2.873258 31.059776 4.327512
2009-02-13 09:59:43 51°16.225 2°54.264 -999 2.877914 31.110556 4.431984
2009-02-13 09:59:48 51°16.228 2°54.268 -999 2.88226 31.156679 4.466808
2009-02-13 09:59:53 51°16.231 2°54.272 -999 2.884433 31.179738 4.466808
2009-02-13 09:59:58 51°16.234 2°54.275 -999 2.884433 31.179738 4.466808
2009-02-13 10:00:03 51°16.236 2°54.278 -999 2.885674 31.192642 4.536456
2009-02-13 10:00:09 51°16.239 2°54.282 -999 2.886709 31.203077 4.536456
2009-02-13 10:00:14 51°16.242 2°54.284 -999 2.888054 31.218168 4.501632
2009-02-13 10:00:19 51°16.245 2°54.286 -999 2.88733 31.209529 4.466808
2009-02-13 10:00:24 51°16.247 2°54.288 -999 2.886295 31.200047 4.431984
2009-02-13 10:00:29 51°16.249 2°54.29 -999 2.886295 31.200047 4.431984
2009-02-13 10:00:33 51°16.251 2°54.291 -999 2.88495 31.185909 4.362336
2009-02-13 10:00:39 51°16.254 2°54.293 -999 2.883605 31.169865 4.362336
2009-02-13 10:00:44 51°16.256 2°54.294 -999 2.882674 31.160663 4.327512
2009-02-13 10:00:49 51°16.258 2°54.295 -999 2.882053 31.155162 4.327512
2009-02-13 10:00:53 51°16.259 2°54.296 -999 2.881018 31.144725 4.292688
2009-02-13 10:00:57 51°16.261 2°54.296 -999 2.881018 31.144725 4.292688
2009-02-13 10:01:04 51°16.263 2°54.296 -999 2.880501 31.138554 4.22304
2009-02-13 10:01:09 51°16.265 2°54.296 -999 2.88019 31.135803 4.22304
2009-02-13 10:01:13 51°16.267 2°54.297 -999 2.879363 31.126882 4.153392
2009-02-13 10:01:18 51°16.268 2°54.296 -999 2.878742 31.120428 4.118568
2009-02-13 10:01:24 51°16.27 2°54.296 -999 2.877604 31.106853 4.083744
2009-02-13 10:01:29 51°16.272 2°54.295 -999 2.877604 31.106853 4.083744
2009-02-13 10:01:33 51°16.273 2°54.295 -999 2.877707 31.108088 4.014096
2009-02-13 10:01:37 51°16.274 2°54.294 -999 2.876569 31.096414 3.979271
2009-02-13 10:01:43 51°16.276 2°54.293 -999 2.875845 31.087776 3.944447
2009-02-13 10:01:49 51°16.278 2°54.292 -999 2.875845 31.088726 3.979271
2009-02-13 10:01:53 51°16.278 2°54.291 -999 2.875948 31.08901 3.874799
2009-02-13 10:01:59 51°16.28 2°54.29 -999 2.875948 31.08901 3.874799
2009-02-13 10:02:04 51°16.281 2°54.289 -999 2.875741 31.086542 3.944447
2009-02-13 10:02:09 51°16.282 2°54.287 -999 2.876362 31.093946 3.909623
2009-02-13 10:02:13 51°16.283 2°54.286 -999 2.876465 31.09328 3.839975
2009-02-13 10:02:18 51°16.284 2°54.285 -999 2.876983 31.098499 3.839975
2009-02-13 10:02:23 51°16.286 2°54.284 -999 2.876983 31.097549 3.839975
2009-02-13 10:02:29 51°16.287 2°54.282 -999 2.876983 31.097549 3.839975
2009-02-13 10:02:34 51°16.288 2°54.28 -999 2.877707 31.105236 3.805151
2009-02-13 10:02:39 51°16.289 2°54.279 -999 2.877707 31.104285 3.805151
2009-02-13 10:02:44 51°16.289 2°54.277 -999 2.878949 31.119092 3.770327
2009-02-13 10:02:49 51°16.29 2°54.275 -999 2.879363 31.123077 3.735503
2009-02-13 10:02:53 51°16.291 2°54.274 -999 2.879673 31.125828 3.665855
2009-02-13 10:02:59 51°16.292 2°54.272 -999 2.879673 31.125828 3.665855
2009-02-13 10:03:04 51°16.293 2°54.27 -999 2.879983 31.127628 3.700679
2009-02-13 10:03:09 51°16.293 2°54.268 -999 2.880397 31.131612 3.700679
2009-02-13 10:03:13 51°16.294 2°54.266 -999 2.880915 31.138733 3.735503
2009-02-13 10:03:19 51°16.295 2°54.264 -999 2.881225 31.141483 3.735503
2009-02-13 10:03:24 51°16.296 2°54.262 -999 2.881535 31.145185 3.700679
2009-02-13 10:03:29 51°16.296 2°54.26 -999 2.881535 31.145185 3.700679
2009-02-13 10:03:33 51°16.297 2°54.258 -999 2.881639 31.146419 3.665855
2009-02-13 10:03:38 51°16.297 2°54.256 -999 2.881742 31.146702 3.735503
2009-02-13 10:03:43 51°16.298 2°54.254 -999 2.881949 31.149169 3.700679
2009-02-13 10:03:49 51°16.298 2°54.251 -999 2.882156 31.150686 3.735503
2009-02-13 10:03:53 51°16.299 2°54.249 -999 2.88226 31.150968 3.700679
2009-02-13 10:03:57 51°16.299 2°54.248 -999 2.88226 31.150968 3.700679
2009-02-13 10:04:03 51°16.299 2°54.245 -999 2.88257 31.15467 3.735503
2009-02-13 10:04:09 51°16.3 2°54.242 -999 2.882984 31.158653 3.735503
2009-02-13 10:04:14 51°16.3 2°54.24 -999 2.883501 31.164823 3.735503
2009-02-13 10:04:19 51°16.3 2°54.237 -999 2.884019 31.17004 3.770327
2009-02-13 10:04:24 51°16.3 2°54.235 -999 2.884639 31.176492 3.700679
2009-02-13 10:04:28 51°16.301 2°54.233 -999 2.884639 31.176492 3.700679
2009-02-13 10:04:33 51°16.301 2°54.231 -999 2.885157 31.180756 3.805151
2009-02-13 10:04:39 51°16.301 2°54.228 -999 2.885571 31.185692 3.839975
2009-02-13 10:04:43 51°16.301 2°54.225 -999 2.885985 31.189675 3.805151
2009-02-13 10:04:49 51°16.301 2°54.222 -999 2.886191 31.192143 3.770327
2009-02-13 10:04:54 51°16.301 2°54.22 -999 2.886398 31.193658 3.805151
2009-02-13 10:04:59 51°16.302 2°54.217 -999 2.886398 31.193658 3.805151
2009-02-13 10:05:04 51°16.302 2°54.215 -999 2.886502 31.195844 3.839975
2009-02-13 10:05:09 51°16.302 2°54.213 -999 2.886916 31.199827 3.944447
2009-02-13 10:05:13 51°16.302 2°54.211 -999 2.887744 31.209699 3.979271
2009-02-13 10:05:19 51°16.302 2°54.208 -999 2.888054 31.213401 3.979271
2009-02-13 10:05:24 51°16.302 2°54.205 -999 2.888364 31.217103 3.944447
2009-02-13 10:05:29 51°16.302 2°54.202 -999 2.888364 31.217103 3.944447
2009-02-13 10:05:33 51°16.302 2°54.2 -999 2.888571 31.219571 4.014096
2009-02-13 10:05:38 51°16.301 2°54.197 -999 2.888675 31.220805 4.04892
2009-02-13 10:05:44 51°16.301 2°54.194 -999 2.888882 31.223273 4.04892
2009-02-13 10:05:49 51°16.301 2°54.192 -999 2.888882 31.223273 4.04892
2009-02-13 10:05:53 51°16.301 2°54.189 -999 2.888882 31.222319 4.014096
2009-02-13 10:05:57 51°16.301 2°54.187 -999 2.888882 31.222319 4.014096
2009-02-13 10:06:03 51°16.3 2°54.184 -999 2.888571 31.220524 4.014096
2009-02-13 10:06:09 51°16.3 2°54.181 -999 2.888054 31.215307 3.979271
2009-02-13 10:06:13 51°16.3 2°54.179 -999 2.88795 31.215027 4.04892
2009-02-13 10:06:17 51°16.3 2°54.177 -999 2.888054 31.216261 4.118568
2009-02-13 10:06:23 51°16.3 2°54.174 -999 2.888364 31.219963 4.118568
2009-02-13 10:06:29 51°16.299 2°54.17 -999 2.888364 31.219963 4.118568
2009-02-13 10:06:33 51°16.299 2°54.168 -999 2.888468 31.221197 4.153392
2009-02-13 10:06:38 51°16.299 2°54.165 -999 2.888468 31.222151 4.153392
2009-02-13 10:06:43 51°16.298 2°54.162 -999 2.888468 31.222151 4.153392
2009-02-13 10:06:49 51°16.298 2°54.159 -999 2.888364 31.22187 4.118568
2009-02-13 10:06:53 51°16.298 2°54.157 -999 2.888054 31.218168 4.04892
2009-02-13 10:06:59 51°16.297 2°54.154 -999 2.888054 31.218168 4.04892
2009-02-13 10:07:04 51°16.297 2°54.151 -999 2.887537 31.211997 4.014096
2009-02-13 10:07:09 51°16.296 2°54.148 -999 2.88733 31.209529 4.083744
2009-02-13 10:07:13 51°16.296 2°54.146 -999 2.88764 31.212278 4.083744
2009-02-13 10:07:19 51°16.296 2°54.143 -999 2.88795 31.21598 4.083744
2009-02-13 10:07:24 51°16.295 2°54.14 -999 2.888054 31.217214 4.118568
2009-02-13 10:07:29 51°16.295 2°54.137 -999 2.888054 31.217214 4.118568
2009-02-13 10:07:33 51°16.294 2°54.135 -999 2.888054 31.217214 4.153392
2009-02-13 10:07:39 51°16.294 2°54.131 -999 2.88795 31.216934 4.118568
2009-02-13 10:07:44 51°16.293 2°54.128 -999 2.88795 31.216934 4.153392
2009-02-13 10:07:49 51°16.293 2°54.125 -999 2.88764 31.213231 4.188216
2009-02-13 10:07:53 51°16.292 2°54.123 -999 2.88733 31.210482 4.153392
2009-02-13 10:07:58 51°16.292 2°54.12 -999 2.88733 31.210482 4.153392
2009-02-13 10:08:04 51°16.291 2°54.117 -999 2.88733 31.210482 4.153392
2009-02-13 10:08:09 51°16.29 2°54.114 -999 2.887019 31.20678 4.083744
2009-02-13 10:08:13 51°16.29 2°54.111 -999 2.886916 31.205546 4.083744
2009-02-13 10:08:17 51°16.289 2°54.109 -999 2.887123 31.208014 4.22304
2009-02-13 10:08:23 51°16.288 2°54.105 -999 2.887433 31.210763 4.257864
2009-02-13 10:08:29 51°16.288 2°54.102 -999 2.887433 31.210763 4.257864
2009-02-13 10:08:33 51°16.287 2°54.1 -999 2.887537 31.211997 4.22304
2009-02-13 10:08:39 51°16.287 2°54.097 -999 2.887537 31.211997 4.153392
2009-02-13 10:08:43 51°16.286 2°54.094 -999 2.887226 31.209248 4.153392
2009-02-13 10:08:49 51°16.286 2°54.09 -999 2.887019 31.20678 4.083744
2009-02-13 10:08:53 51°16.286 2°54.087 -999 2.886812 31.204311 4.118568
2009-02-13 10:08:58 51°16.286 2°54.083 -999 2.886812 31.204311 4.118568
2009-02-13 10:09:03 51°16.287 2°54.08 -999 2.886502 31.201562 4.118568
2009-02-13 10:09:09 51°16.288 2°54.075 -999 2.886295 31.199094 4.118568
2009-02-13 10:09:14 51°16.289 2°54.071 -999 2.886088 31.197579 4.083744
2009-02-13 10:09:19 51°16.29 2°54.068 -999 2.885778 31.193876 4.083744
2009-02-13 10:09:24 51°16.291 2°54.065 -999 2.885674 31.191689 4.04892
2009-02-13 10:09:29 51°16.293 2°54.061 -999 2.885674 31.191689 4.04892
2009-02-13 10:09:33 51°16.294 2°54.059 -999 2.885881 31.194158 4.118568
2009-02-13 10:09:39 51°16.296 2°54.056 -999 2.886502 31.200609 4.153392
2009-02-13 10:09:44 51°16.298 2°54.054 -999 2.887123 31.207061 4.188216
2009-02-13 10:09:49 51°16.3 2°54.053 -999 2.88764 31.212278 4.22304
2009-02-13 10:09:53 51°16.302 2°54.052 -999 2.888571 31.220524 4.292688
2009-02-13 10:09:58 51°16.304 2°54.052 -999 2.888571 31.220524 4.292688
2009-02-13 10:10:04 51°16.306 2°54.052 -999 2.889606 31.231911 4.362336
2009-02-13 10:10:09 51°16.308 2°54.053 -999 2.890641 31.242344 4.466808
2009-02-13 10:10:13 51°16.31 2°54.054 -999 2.89271 31.265117 4.640929
2009-02-13 10:10:17 51°16.311 2°54.055 -999 2.894986 31.290358 4.745401
2009-02-13 10:10:24 51°16.313 2°54.058 -999 2.897263 31.314643 4.884697
2009-02-13 10:10:29 51°16.314 2°54.061 -999 2.897263 31.314643 4.884697
2009-02-13 10:10:33 51°16.315 2°54.063 -999 2.899125 31.334947 4.919521
2009-02-13 10:10:37 51°16.315 2°54.066 -999 2.900677 31.351547 4.919521
2009-02-13 10:10:43 51°16.315 2°54.071 -999 2.901402 31.360187 4.954345
2009-02-13 10:10:49 51°16.315 2°54.075 -999 2.902333 31.370339 4.954345
2009-02-13 10:10:53 51°16.314 2°54.079 -999 2.903057 31.37898 4.989169
2009-02-13 10:10:58 51°16.314 2°54.083 -999 2.903057 31.37898 4.989169
2009-02-13 10:11:03 51°16.312 2°54.087 -999 2.903471 31.383917 5.058817
2009-02-13 10:11:09 51°16.31 2°54.093 -999 2.903678 31.386386 5.093641
2009-02-13 10:11:13 51°16.309 2°54.097 -999 2.903885 31.387897 5.023993
2009-02-13 10:11:19 51°16.306 2°54.103 -999 2.903678 31.387344 5.058817
2009-02-13 10:11:24 51°16.304 2°54.11 -999 2.903678 31.386386 5.058817
2009-02-13 10:11:29 51°16.302 2°54.117 -999 2.903678 31.386386 5.058817
2009-02-13 10:11:34 51°16.3 2°54.125 -999 2.903575 31.387068 5.058817
2009-02-13 10:11:39 51°16.298 2°54.133 -999 2.903575 31.388027 5.093641
2009-02-13 10:11:44 51°16.296 2°54.142 -999 2.903471 31.385834 5.058817
2009-02-13 10:11:48 51°16.295 2°54.15 -999 2.903264 31.384323 4.989169
2009-02-13 10:11:53 51°16.294 2°54.16 -999 2.903161 31.383088 5.058817
2009-02-13 10:11:59 51°16.293 2°54.171 -999 2.903161 31.383088 5.058817
2009-02-13 10:12:04 51°16.292 2°54.181 -999 2.903057 31.382812 5.058817
2009-02-13 10:12:09 51°16.291 2°54.19 -999 2.902954 31.381577 5.163289
2009-02-13 10:12:13 51°16.291 2°54.198 -999 2.902954 31.382536 5.128465
2009-02-13 10:12:18 51°16.29 2°54.207 -999 2.902333 31.376086 5.093641
2009-02-13 10:12:24 51°16.289 2°54.217 -999 2.901712 31.369637 5.093641
2009-02-13 10:12:29 51°16.287 2°54.225 -999 2.901712 31.369637 5.093641
2009-02-13 10:12:33 51°16.286 2°54.231 -999 2.900884 31.360718 4.989169
2009-02-13 10:12:37 51°16.284 2°54.237 -999 2.899332 31.343157 4.919521
2009-02-13 10:12:44 51°16.282 2°54.247 -999 2.897677 31.324362 4.919521
2009-02-13 10:12:49 51°16.279 2°54.253 -999 2.896435 31.30955 4.919521
2009-02-13 10:12:53 51°16.278 2°54.258 -999 2.895918 31.304334 5.058817
2009-02-13 10:12:58 51°16.275 2°54.263 -999 2.895918 31.304334 5.058817
2009-02-13 10:13:03 51°16.273 2°54.268 -999 2.895607 31.302543 4.954345
2009-02-13 10:13:09 51°16.27 2°54.274 -999 2.894883 31.294858 4.919521
2009-02-13 10:13:13 51°16.268 2°54.277 -999 2.894055 31.285938 4.849873
2009-02-13 10:13:18 51°16.266 2°54.281 -999 2.893021 31.27455 4.849873
2009-02-13 10:13:23 51°16.263 2°54.285 -999 2.891675 31.260413 4.710577
2009-02-13 10:13:29 51°16.26 2°54.29 -999 2.891675 31.260413 4.710577
2009-02-13 10:13:34 51°16.258 2°54.293 -999 2.890434 31.246555 4.675753
2009-02-13 10:13:39 51°16.255 2°54.296 -999 2.889399 31.235167 4.675753
2009-02-13 10:13:44 51°16.253 2°54.298 -999 2.888468 31.225966 4.675753
2009-02-13 10:13:49 51°16.251 2°54.301 -999 2.887847 31.220468 4.710577
2009-02-13 10:13:54 51°16.248 2°54.303 -999 2.887744 31.220187 4.640929
2009-02-13 10:13:59 51°16.246 2°54.305 -999 2.887744 31.220187 4.640929
2009-02-13 10:14:04 51°16.243 2°54.307 -999 2.887226 31.214016 4.675753
2009-02-13 10:14:09 51°16.241 2°54.309 -999 2.886502 31.207282 4.640929
2009-02-13 10:14:13 51°16.239 2°54.31 -999 2.886192 31.203579 4.640929
2009-02-13 10:14:19 51°16.236 2°54.312 -999 2.885985 31.201111 4.675753
2009-02-13 10:14:24 51°16.234 2°54.313 -999 2.885364 31.193705 4.606104
2009-02-13 10:14:29 51°16.232 2°54.314 -999 2.885364 31.193705 4.606104
2009-02-13 10:14:33 51°16.229 2°54.315 -999 2.884536 31.185736 4.536456
2009-02-13 10:14:39 51°16.227 2°54.316 -999 2.883708 31.176814 4.606104
2009-02-13 10:14:44 51°16.224 2°54.317 -999 2.882881 31.16694 4.536456
2009-02-13 10:14:49 51°16.222 2°54.318 -999 2.882156 31.160205 4.466808
2009-02-13 10:14:53 51°16.22 2°54.318 -999 2.881328 31.151283 4.39716
2009-02-13 10:14:57 51°16.218 2°54.319 -999 2.881328 31.151283 4.39716
2009-02-13 10:15:04 51°16.215 2°54.32 -999 2.880397 31.141126 4.362336
2009-02-13 10:15:09 51°16.213 2°54.32 -999 2.879052 31.126033 4.292688
2009-02-13 10:15:13 51°16.211 2°54.32 -999 2.878224 31.118062 4.257864
2009-02-13 10:15:18 51°16.209 2°54.321 -999 2.877293 31.107905 4.292688
2009-02-13 10:15:23 51°16.206 2°54.321 -999 2.876672 31.10145 4.292688
2009-02-13 10:15:29 51°16.204 2°54.321 -999 2.876672 31.10145 4.292688
2009-02-13 10:15:33 51°16.202 2°54.321 -999 2.876155 31.09623 4.257864
2009-02-13 10:15:38 51°16.2 2°54.322 -999 2.875741 31.092243 4.257864
2009-02-13 10:15:43 51°16.198 2°54.321 -999 2.875534 31.089775 4.257864
2009-02-13 10:15:49 51°16.196 2°54.322 -999 2.875017 31.085505 4.292688
2009-02-13 10:15:54 51°16.194 2°54.321 -999 2.874603 31.081518 4.22304
2009-02-13 10:15:59 51°16.192 2°54.321 -999 2.874603 31.081518 4.22304
2009-02-13 10:16:04 51°16.189 2°54.321 -999 2.874396 31.079049 4.257864
2009-02-13 10:16:08 51°16.188 2°54.321 -999 2.874086 31.076297 4.257864
2009-02-13 10:16:13 51°16.186 2°54.321 -999 2.874086 31.075347 4.22304
2009-02-13 10:16:19 51°16.184 2°54.321 -999 2.873775 31.073544 4.257864
2009-02-13 10:16:24 51°16.182 2°54.32 -999 2.873775 31.074494 4.22304
2009-02-13 10:16:29 51°16.18 2°54.32 -999 2.873775 31.074494 4.22304
2009-02-13 10:16:33 51°16.178 2°54.32 -999 2.873568 31.071075 4.257864
2009-02-13 10:16:39 51°16.176 2°54.319 -999 2.873051 31.065854 4.153392
2009-02-13 10:16:44 51°16.174 2°54.319 -999 2.872637 31.061866 4.153392
2009-02-13 10:16:49 51°16.173 2°54.318 -999 2.871706 31.050758 4.118568
2009-02-13 10:16:53 51°16.171 2°54.318 -999 2.870878 31.041834 4.118568
2009-02-13 10:16:59 51°16.169 2°54.317 -999 2.870878 31.041834 4.118568
2009-02-13 10:17:04 51°16.167 2°54.316 -999 2.869844 31.03139 4.083744
2009-02-13 10:17:09 51°16.165 2°54.316 -999 2.86943 31.027402 4.118568
2009-02-13 10:17:13 51°16.164 2°54.315 -999 2.869223 31.025882 4.083744
2009-02-13 10:17:17 51°16.163 2°54.315 -999 2.868706 31.020659 4.083744
2009-02-13 10:17:24 51°16.161 2°54.314 -999 2.867567 31.008979 4.04892
2009-02-13 10:17:29 51°16.158 2°54.313 -999 2.867567 31.008979 4.04892
2009-02-13 10:17:33 51°16.158 2°54.312 -999 2.866533 30.996637 4.04892
2009-02-13 10:17:38 51°16.156 2°54.312 -999 2.865808 30.989893 3.979271
2009-02-13 10:17:43 51°16.154 2°54.311 -999 2.864877 30.980681 3.944447
2009-02-13 10:17:49 51°16.152 2°54.31 -999 2.863739 30.968052 4.014096
2009-02-13 10:17:53 51°16.151 2°54.309 -999 2.862808 30.957891 3.944447
2009-02-13 10:17:59 51°16.149 2°54.308 -999 2.862808 30.957891 3.944447
2009-02-13 10:18:03 51°16.148 2°54.307 -999 2.861566 30.944028 3.909623
2009-02-13 10:18:09 51°16.146 2°54.306 -999 2.860221 30.929877 3.839975
2009-02-13 10:18:14 51°16.145 2°54.305 -999 2.858669 30.914203 3.839975
2009-02-13 10:18:19 51°16.143 2°54.304 -999 2.857531 30.902518 3.805151
2009-02-13 10:18:24 51°16.142 2°54.303 -999 2.856393 30.890833 3.805151
2009-02-13 10:18:28 51°16.141 2°54.302 -999 2.856393 30.890833 3.805151
2009-02-13 10:18:33 51°16.139 2°54.301 -999 2.855566 30.88285 3.805151
2009-02-13 10:18:39 51°16.137 2°54.299 -999 2.854841 30.875156 3.874799
2009-02-13 10:18:44 51°16.136 2°54.298 -999 2.854221 30.86964 3.805151
2009-02-13 10:18:49 51°16.134 2°54.297 -999 2.853807 30.865648 3.839975
2009-02-13 10:18:53 51°16.133 2°54.296 -999 2.853496 30.861946 3.839975
2009-02-13 10:18:59 51°16.131 2°54.294 -999 2.853496 30.861946 3.839975
2009-02-13 10:19:04 51°16.13 2°54.293 -999 2.853393 30.860711 3.874799
2009-02-13 10:19:09 51°16.129 2°54.292 -999 2.853496 30.860057 3.839975
2009-02-13 10:19:13 51°16.128 2°54.291 -999 2.853289 30.859477 3.805151
2009-02-13 10:19:17 51°16.126 2°54.29 -999 2.852876 30.855485 3.805151
2009-02-13 10:19:24 51°16.125 2°54.288 -999 2.852255 30.849968 3.770327
2009-02-13 10:19:29 51°16.123 2°54.287 -999 2.852255 30.849968 3.770327
2009-02-13 10:19:33 51°16.122 2°54.286 -999 2.851841 30.845975 3.770327
2009-02-13 10:19:37 51°16.121 2°54.284 -999 2.851324 30.83886 3.770327
2009-02-13 10:19:44 51°16.119 2°54.282 -999 2.851013 30.837045 3.770327
2009-02-13 10:19:49 51°16.118 2°54.281 -999 2.850599 30.833052 3.735503
2009-02-13 10:19:53 51°16.117 2°54.28 -999 2.850082 30.826881 3.700679
2009-02-13 10:19:58 51°16.116 2°54.278 -999 2.850082 30.826881 3.700679
2009-02-13 10:20:03 51°16.114 2°54.277 -999 2.849668 30.822888 3.770327
2009-02-13 10:20:09 51°16.113 2°54.275 -999 2.849358 30.821072 3.735503
2009-02-13 10:20:13 51°16.112 2°54.274 -999 2.849151 30.818604 3.735503
2009-02-13 10:20:19 51°16.11 2°54.272 -999 2.848634 30.813376 3.735503
2009-02-13 10:20:24 51°16.109 2°54.271 -999 2.848116 30.808148 3.700679
2009-02-13 10:20:29 51°16.108 2°54.269 -999 2.848116 30.808148 3.700679
2009-02-13 10:20:34 51°16.107 2°54.268 -999 2.847702 30.803211 3.700679
2009-02-13 10:20:39 51°16.105 2°54.266 -999 2.847392 30.800451 3.700679
2009-02-13 10:20:44 51°16.104 2°54.265 -999 2.847185 30.797982 3.735503
2009-02-13 10:20:49 51°16.103 2°54.263 -999 2.846771 30.793988 3.700679
2009-02-13 10:20:53 51°16.102 2°54.262 -999 2.846564 30.792463 3.770327
2009-02-13 10:20:59 51°16.1 2°54.26 -999 2.846564 30.792463 3.770327
2009-02-13 10:21:04 51°16.099 2°54.258 -999 2.846564 30.792463 3.700679
2009-02-13 10:21:09 51°16.098 2°54.256 -999 2.846771 30.794931 3.700679
2009-02-13 10:21:13 51°16.097 2°54.255 -999 2.846771 30.795874 3.735503
2009-02-13 10:21:19 51°16.095 2°54.253 -999 2.846771 30.795874 3.700679
2009-02-13 10:21:24 51°16.094 2°54.251 -999 2.846151 30.789411 3.700679
2009-02-13 10:21:29 51°16.093 2°54.25 -999 2.846151 30.789411 3.700679
2009-02-13 10:21:33 51°16.092 2°54.248 -999 2.84553 30.782948 3.665855
2009-02-13 10:21:37 51°16.091 2°54.247 -999 2.845013 30.776776 3.665855
2009-02-13 10:21:44 51°16.089 2°54.244 -999 2.844288 30.768136 3.631031
2009-02-13 10:21:49 51°16.088 2°54.243 -999 2.843357 30.758912 3.561383
2009-02-13 10:21:53 51°16.087 2°54.241 -999 2.842633 30.752156 3.665855
2009-02-13 10:21:58 51°16.086 2°54.239 -999 2.842633 30.752156 3.665855
2009-02-13 10:22:04 51°16.085 2°54.237 -999 2.841909 30.744457 3.596207
2009-02-13 10:22:09 51°16.084 2°54.236 -999 2.841598 30.740754 3.596207
2009-02-13 10:22:13 51°16.083 2°54.234 -999 2.841598 30.741696 3.561383
2009-02-13 10:22:18 51°16.082 2°54.232 -999 2.841288 30.737993 3.596207
2009-02-13 10:22:23 51°16.081 2°54.23 -999 2.841184 30.736759 3.631031
2009-02-13 10:22:29 51°16.079 2°54.228 -999 2.841184 30.736759 3.631031
2009-02-13 10:22:34 51°16.078 2°54.227 -999 2.841184 30.736759 3.631031
2009-02-13 10:22:39 51°16.077 2°54.225 -999 2.841184 30.736759 3.631031
2009-02-13 10:22:44 51°16.076 2°54.224 -999 2.840874 30.733997 3.561383
2009-02-13 10:22:48 51°16.074 2°54.223 -999 2.839943 30.72383 3.526559
2009-02-13 10:22:53 51°16.073 2°54.222 -999 2.839219 30.716131 3.561383
2009-02-13 10:22:59 51°16.071 2°54.222 -999 2.839219 30.716131 3.561383
2009-02-13 10:23:04 51°16.07 2°54.222 -999 2.838805 30.712134 3.526559
2009-02-13 10:23:09 51°16.069 2°54.223 -999 2.838495 30.709372 3.596207
2009-02-13 10:23:14 51°16.067 2°54.224 -999 2.838701 30.7109 3.631031
2009-02-13 10:23:19 51°16.066 2°54.225 -999 2.838391 30.708138 3.596207
2009-02-13 10:23:24 51°16.066 2°54.226 -999 2.837977 30.704141 3.526559
2009-02-13 10:23:29 51°16.065 2°54.227 -999 2.837977 30.704141 3.526559
2009-02-13 10:23:33 51°16.064 2°54.228 -999 2.83746 30.69891 3.526559
2009-02-13 10:23:39 51°16.064 2°54.231 -999 2.837253 30.697382 3.526559
2009-02-13 10:23:44 51°16.065 2°54.232 -999 2.83715 30.696148 3.631031
2009-02-13 10:23:49 51°16.065 2°54.234 -999 2.838081 30.707257 3.700679
2009-02-13 10:23:53 51°16.066 2°54.236 -999 2.839736 30.724184 3.805151
2009-02-13 10:23:57 51°16.067 2°54.237 -999 2.839736 30.724184 3.805151
2009-02-13 10:24:04 51°16.069 2°54.239 -999 2.842116 30.750693 3.909623
2009-02-13 10:24:09 51°16.071 2°54.24 -999 2.844185 30.773498 3.909623
2009-02-13 10:24:13 51°16.072 2°54.24 -999 2.844288 30.774732 3.874799
2009-02-13 10:24:18 51°16.074 2°54.241 -999 2.84284 30.759334 3.770327
2009-02-13 10:24:23 51°16.077 2°54.241 -999 2.839736 30.726067 3.700679
2009-02-13 10:24:29 51°16.081 2°54.241 -999 2.839736 30.726067 3.700679
2009-02-13 10:24:33 51°16.084 2°54.241 -999 2.835701 30.684508 3.665855
2009-02-13 10:24:37 51°16.087 2°54.241 -999 2.834149 30.669751 3.735503
2009-02-13 10:24:43 51°16.092 2°54.241 -999 2.833529 30.664223 3.700679
2009-02-13 10:24:49 51°16.097 2°54.241 -999 2.831356 30.641116 3.526559
2009-02-13 10:24:54 51°16.101 2°54.241 -999 2.829183 30.618008 3.561383
2009-02-13 10:24:59 51°16.106 2°54.242 -999 2.829183 30.618008 3.561383
2009-02-13 10:25:04 51°16.111 2°54.242 -999 2.827838 30.604774 3.631031